Time,TemperatureF,DewpointF,PressureIn,WindDirection,WindDirectionDegrees,WindSpeedMPH,WindSpeedGustMPH,Humidity,HourlyPrecipIn,Conditions,Clouds,dailyrainin,SoftwareType,DateUTC
2013-01-05 00:00:00,69.8,68.0,30.18,NNE,31,0.0,0.0,94,0.00,,,0.00,Wunderground v.1.15,2013-01-05 05:00:00,
2013-01-05 00:01:00,69.7,67.9,30.18,NNE,31,0.0,0.0,94,0.00,,,0.00,Wunderground v.1.15,2013-01-05 05:01:00,
2013-01-05 00:03:00,69.7,67.9,30.18,NNE,31,0.0,0.0,94,0.00,,,0.00,Wunderground v.1.15,2013-01-05 05:03:00,
2013-01-05 00:04:00,69.6,67.8,30.18,NNE,31,0.0,0.0,94,0.00,,,0.00,Wunderground v.1.15,2013-01-05 05:04:00,
2013-01-05 00:06:00,69.5,67.7,30.18,NNE,31,0.0,0.0,94,0.00,,,0.00,Wunderground v.1.15,2013-01-05 05:06:00,
2013-01-05 00:09:00,69.4,67.6,30.18,NNE,31,0.0,0.0,94,0.00,,,0.00,Wunderground v.1.15,2013-01-05 05:09:00,
2013-01-05 00:10:00,69.4,67.6,30.18,NNE,31,0.0,0.0,94,0.00,,,0.00,Wunderground v.1.15,2013-01-05 05:10:00,
2013-01-05 00:13:00,69.4,67.6,30.18,NNE,31,0.0,0.0,94,0.00,,,0.00,Wunderground v.1.15,2013-01-05 05:13:00,
2013-01-05 00:15:00,69.3,67.5,30.17,NNE,31,0.0,0.0,94,0.00,,,0.00,Wunderground v.1.15,2013-01-05 05:15:00,
2013-01-05 00:20:00,69.1,67.3,30.17,NNE,31,0.0,0.0,94,0.00,,,0.00,Wunderground v.1.15,2013-01-05 05:20:00,
2013-01-05 00:21:00,69.0,67.2,30.17,NNE,31,0.0,0.0,94,0.00,,,0.00,Wunderground v.1.15,2013-01-05 05:21:00,
2013-01-05 00:22:00,69.0,67.2,30.17,NNE,31,0.0,0.0,94,0.00,,,0.00,Wunderground v.1.15,2013-01-05 05:22:00,
2013-01-05 00:24:00,69.0,67.2,30.17,NNE,31,0.0,0.0,94,0.00,,,0.00,Wunderground v.1.15,2013-01-05 05:24:00,
2013-01-05 00:28:00,69.1,67.6,30.17,NNE,31,0.0,0.0,95,0.00,,,0.00,Wunderground v.1.15,2013-01-05 05:28:00,
2013-01-05 00:29:00,69.1,67.6,30.17,NNE,31,0.0,0.0,95,0.00,,,0.00,Wunderground v.1.15,2013-01-05 05:29:00,
2013-01-05 00:31:00,69.0,67.5,30.17,NNE,31,0.0,0.0,95,0.00,,,0.00,Wunderground v.1.15,2013-01-05 05:31:00,
2013-01-05 00:33:00,68.9,67.4,30.17,NNE,31,0.0,0.0,95,0.00,,,0.00,Wunderground v.1.15,2013-01-05 05:33:00,
2013-01-05 00:34:00,68.8,67.3,30.17,NNE,31,0.0,0.0,95,0.00,,,0.00,Wunderground v.1.15,2013-01-05 05:34:00,
2013-01-05 00:37:00,68.8,67.3,30.17,NNE,31,0.0,0.0,95,0.00,,,0.00,Wunderground v.1.15,2013-01-05 05:37:00,
2013-01-05 00:39:00,68.7,66.9,30.17,NNE,31,0.0,0.0,94,0.00,,,0.00,Wunderground v.1.15,2013-01-05 05:39:00,
2013-01-05 00:41:00,68.6,66.8,30.17,NNE,31,0.0,0.0,94,0.00,,,0.00,Wunderground v.1.15,2013-01-05 05:41:00,
2013-01-05 00:42:00,68.6,66.8,30.17,NNE,31,0.0,0.0,94,0.00,,,0.00,Wunderground v.1.15,2013-01-05 05:42:00,
2013-01-05 00:44:00,68.5,67.0,30.17,NNE,31,0.0,0.0,95,0.00,,,0.00,Wunderground v.1.15,2013-01-05 05:44:00,
2013-01-05 00:45:00,68.5,67.0,30.17,NNE,31,0.0,0.0,95,0.00,,,0.00,Wunderground v.1.15,2013-01-05 05:45:00,
2013-01-05 00:47:00,68.5,67.0,30.17,NNE,31,0.0,0.0,95,0.00,,,0.00,Wunderground v.1.15,2013-01-05 05:47:00,
2013-01-05 00:51:00,68.5,67.0,30.17,NNE,31,0.0,0.0,95,0.00,,,0.00,Wunderground v.1.15,2013-01-05 05:51:00,
2013-01-05 00:52:00,68.5,67.0,30.17,NNE,31,0.0,0.0,95,0.00,,,0.00,Wunderground v.1.15,2013-01-05 05:52:00,
2013-01-05 00:53:00,68.4,66.9,30.17,NNE,31,0.0,0.0,95,0.00,,,0.00,Wunderground v.1.15,2013-01-05 05:53:00,
2013-01-05 00:54:00,68.4,66.9,30.17,NNE,31,0.0,0.0,95,0.00,,,0.00,Wunderground v.1.15,2013-01-05 05:54:00,
2013-01-05 00:58:00,68.1,66.6,30.17,NNE,31,0.0,0.0,95,0.00,,,0.00,Wunderground v.1.15,2013-01-05 05:58:00,
2013-01-05 00:59:00,68.1,66.6,30.17,NNE,31,0.0,0.0,95,0.00,,,0.00,Wunderground v.1.15,2013-01-05 05:59:00,
2013-01-05 01:02:00,68.0,66.5,30.17,NNE,31,0.0,0.0,95,0.00,,,0.00,Wunderground v.1.15,2013-01-05 06:02:00,
2013-01-05 01:03:00,68.0,66.5,30.17,NNE,31,0.0,0.0,95,0.00,,,0.00,Wunderground v.1.15,2013-01-05 06:03:00,
2013-01-05 01:05:00,67.9,66.4,30.17,NNE,31,0.0,0.0,95,0.00,,,0.00,Wunderground v.1.15,2013-01-05 06:05:00,
2013-01-05 01:08:00,67.9,66.4,30.16,NNE,31,0.0,0.0,95,0.00,,,0.00,Wunderground v.1.15,2013-01-05 06:08:00,
2013-01-05 01:10:00,67.8,66.3,30.16,NNE,31,0.0,0.0,95,0.00,,,0.00,Wunderground v.1.15,2013-01-05 06:10:00,
2013-01-05 01:11:00,67.8,66.3,30.17,NNE,31,0.0,0.0,95,0.00,,,0.00,Wunderground v.1.15,2013-01-05 06:11:00,
2013-01-05 01:16:00,67.8,66.3,30.16,NNE,31,0.0,0.0,95,0.00,,,0.00,Wunderground v.1.15,2013-01-05 06:16:00,
2013-01-05 01:17:00,67.8,66.3,30.16,NNE,31,0.0,0.0,95,0.00,,,0.00,Wunderground v.1.15,2013-01-05 06:17:00,
2013-01-05 01:19:00,67.7,66.2,30.16,NNE,31,0.0,0.0,95,0.00,,,0.00,Wunderground v.1.15,2013-01-05 06:19:00,
2013-01-05 01:20:00,67.7,66.2,30.16,NNE,31,0.0,0.0,95,0.00,,,0.00,Wunderground v.1.15,2013-01-05 06:20:00,
2013-01-05 01:21:00,67.6,66.1,30.16,NNE,31,0.0,0.0,95,0.00,,,0.00,Wunderground v.1.15,2013-01-05 06:21:00,
2013-01-05 01:23:00,67.6,66.1,30.16,NNE,31,0.0,0.0,95,0.00,,,0.00,Wunderground v.1.15,2013-01-05 06:23:00,
2013-01-05 01:24:00,67.6,66.1,30.16,NNE,31,0.0,0.0,95,0.00,,,0.00,Wunderground v.1.15,2013-01-05 06:24:00,
2013-01-05 01:25:00,67.6,66.1,30.16,NNE,31,0.0,0.0,95,0.00,,,0.00,Wunderground v.1.15,2013-01-05 06:25:00,
2013-01-05 01:30:00,67.5,66.3,30.16,NNE,31,0.0,0.0,96,0.00,,,0.00,Wunderground v.1.15,2013-01-05 06:30:00,
2013-01-05 01:31:00,67.5,66.0,30.16,NNE,31,0.0,0.0,95,0.00,,,0.00,Wunderground v.1.15,2013-01-05 06:31:00,
2013-01-05 01:33:00,67.4,65.9,30.16,NNE,31,0.0,0.0,95,0.00,,,0.00,Wunderground v.1.15,2013-01-05 06:33:00,
2013-01-05 01:36:00,67.3,65.8,30.16,NNE,31,0.0,0.0,95,0.00,,,0.00,Wunderground v.1.15,2013-01-05 06:36:00,
2013-01-05 01:38:00,67.2,65.7,30.16,NNE,31,0.0,0.0,95,0.00,,,0.00,Wunderground v.1.15,2013-01-05 06:38:00,
2013-01-05 01:40:00,67.2,66.0,30.16,NNE,31,0.0,0.0,96,0.00,,,0.00,Wunderground v.1.15,2013-01-05 06:40:00,
2013-01-05 01:43:00,67.1,65.9,30.16,NNE,31,0.0,0.0,96,0.00,,,0.00,Wunderground v.1.15,2013-01-05 06:43:00,
2013-01-05 01:44:00,67.1,65.9,30.16,NNE,31,0.0,0.0,96,0.00,,,0.00,Wunderground v.1.15,2013-01-05 06:44:00,
2013-01-05 01:47:00,67.0,65.8,30.16,NNE,31,0.0,0.0,96,0.00,,,0.00,Wunderground v.1.15,2013-01-05 06:47:00,
2013-01-05 01:48:00,67.0,65.8,30.16,NNE,31,0.0,0.0,96,0.00,,,0.00,Wunderground v.1.15,2013-01-05 06:48:00,
2013-01-05 01:49:00,67.0,65.8,30.16,NNE,31,0.0,0.0,96,0.00,,,0.00,Wunderground v.1.15,2013-01-05 06:49:00,
2013-01-05 01:55:00,66.9,65.7,30.16,NNE,30,0.0,0.0,96,0.00,,,0.00,Wunderground v.1.15,2013-01-05 06:55:00,
2013-01-05 01:56:00,66.8,65.6,30.16,NNE,31,0.0,0.0,96,0.00,,,0.00,Wunderground v.1.15,2013-01-05 06:56:00,
2013-01-05 01:58:00,66.8,65.6,30.15,NNE,31,0.0,0.0,96,0.00,,,0.00,Wunderground v.1.15,2013-01-05 06:58:00,
2013-01-05 02:00:00,66.7,65.5,30.15,NNE,31,0.0,0.0,96,0.00,,,0.00,Wunderground v.1.15,2013-01-05 07:00:00,
2013-01-05 02:01:00,66.8,65.6,30.15,NNE,31,0.0,0.0,96,0.00,,,0.00,Wunderground v.1.15,2013-01-05 07:01:00,
2013-01-05 02:03:00,66.8,65.6,30.15,NNE,31,0.0,0.0,96,0.00,,,0.00,Wunderground v.1.15,2013-01-05 07:03:00,
2013-01-05 02:06:00,66.9,65.7,30.15,NNE,31,0.0,0.0,96,0.00,,,0.00,Wunderground v.1.15,2013-01-05 07:06:00,
2013-01-05 02:08:00,67.2,66.0,30.15,NNE,31,0.0,0.0,96,0.00,,,0.00,Wunderground v.1.15,2013-01-05 07:08:00,
2013-01-05 02:11:00,67.3,66.1,30.15,NNE,31,0.0,0.0,96,0.00,,,0.00,Wunderground v.1.15,2013-01-05 07:11:00,
2013-01-05 02:12:00,67.3,66.1,30.15,NNE,31,0.0,0.0,96,0.00,,,0.00,Wunderground v.1.15,2013-01-05 07:12:00,
2013-01-05 02:14:00,67.4,66.2,30.15,NNE,31,0.0,0.0,96,0.00,,,0.00,Wunderground v.1.15,2013-01-05 07:14:00,
2013-01-05 02:16:00,67.4,66.2,30.15,NNE,31,0.0,0.0,96,0.00,,,0.00,Wunderground v.1.15,2013-01-05 07:16:00,
2013-01-05 02:17:00,67.4,66.2,30.15,NNE,31,0.0,0.0,96,0.00,,,0.00,Wunderground v.1.15,2013-01-05 07:17:00,
2013-01-05 02:19:00,67.1,65.9,30.15,NNE,31,0.0,0.0,96,0.00,,,0.00,Wunderground v.1.15,2013-01-05 07:19:00,
2013-01-05 02:21:00,67.0,65.8,30.15,NNE,31,0.0,0.0,96,0.00,,,0.00,Wunderground v.1.15,2013-01-05 07:21:00,
2013-01-05 02:22:00,67.0,65.8,30.15,NNE,31,0.0,0.0,96,0.00,,,0.00,Wunderground v.1.15,2013-01-05 07:22:00,
2013-01-05 02:24:00,67.0,65.8,30.15,NNE,31,0.0,0.0,96,0.00,,,0.00,Wunderground v.1.15,2013-01-05 07:24:00,
2013-01-05 02:27:00,66.9,65.7,30.15,NNE,31,0.0,0.0,96,0.00,,,0.00,Wunderground v.1.15,2013-01-05 07:27:00,
2013-01-05 02:28:00,66.8,65.6,30.15,NNE,31,0.0,0.0,96,0.00,,,0.00,Wunderground v.1.15,2013-01-05 07:28:00,
2013-01-05 02:29:00,66.7,65.5,30.15,NNE,31,0.0,0.0,96,0.00,,,0.00,Wunderground v.1.15,2013-01-05 07:29:00,
2013-01-05 02:32:00,66.6,65.4,30.15,NNE,31,0.0,0.0,96,0.00,,,0.00,Wunderground v.1.15,2013-01-05 07:32:00,
2013-01-05 02:33:00,66.5,65.3,30.15,NNE,31,0.0,0.0,96,0.00,,,0.00,Wunderground v.1.15,2013-01-05 07:33:00,
2013-01-05 02:34:00,66.5,65.3,30.15,NNE,31,0.0,0.0,96,0.00,,,0.00,Wunderground v.1.15,2013-01-05 07:34:00,
2013-01-05 02:38:00,66.6,65.4,30.15,NNE,30,0.0,0.0,96,0.00,,,0.00,Wunderground v.1.15,2013-01-05 07:38:00,
2013-01-05 02:39:00,66.6,65.4,30.15,NNE,31,0.0,0.0,96,0.00,,,0.00,Wunderground v.1.15,2013-01-05 07:39:00,
2013-01-05 02:40:00,66.6,65.4,30.15,NNE,31,0.0,0.0,96,0.00,,,0.00,Wunderground v.1.15,2013-01-05 07:40:00,
2013-01-05 02:43:00,66.6,65.4,30.15,NNE,31,0.0,0.0,96,0.00,,,0.00,Wunderground v.1.15,2013-01-05 07:43:00,
2013-01-05 02:44:00,66.5,65.3,30.15,NNE,30,0.0,0.0,96,0.00,,,0.00,Wunderground v.1.15,2013-01-05 07:44:00,
2013-01-05 02:45:00,66.6,65.4,30.15,NNE,31,0.0,0.0,96,0.00,,,0.00,Wunderground v.1.15,2013-01-05 07:45:00,
2013-01-05 02:48:00,66.6,65.4,30.15,NNE,31,0.0,0.0,96,0.00,,,0.00,Wunderground v.1.15,2013-01-05 07:48:00,
2013-01-05 02:49:00,66.6,65.4,30.15,NNE,31,0.0,0.0,96,0.00,,,0.00,Wunderground v.1.15,2013-01-05 07:49:00,
2013-01-05 02:50:00,66.6,65.4,30.15,NNE,31,0.0,0.0,96,0.00,,,0.00,Wunderground v.1.15,2013-01-05 07:50:00,
2013-01-05 02:52:00,66.6,65.4,30.15,NNE,31,0.0,0.0,96,0.00,,,0.00,Wunderground v.1.15,2013-01-05 07:52:00,
2013-01-05 02:53:00,66.6,65.4,30.15,NNE,31,0.0,0.0,96,0.00,,,0.00,Wunderground v.1.15,2013-01-05 07:53:00,
2013-01-05 02:54:00,66.6,65.4,30.15,NNE,31,0.0,0.0,96,0.00,,,0.00,Wunderground v.1.15,2013-01-05 07:54:00,
2013-01-05 02:56:00,66.6,65.4,30.15,NNE,30,0.0,0.0,96,0.00,,,0.00,Wunderground v.1.15,2013-01-05 07:56:00,
2013-01-05 02:57:00,66.6,65.4,30.15,NNE,31,0.0,0.0,96,0.00,,,0.00,Wunderground v.1.15,2013-01-05 07:57:00,
2013-01-05 02:58:00,66.6,65.4,30.15,NNE,31,0.0,0.0,96,0.00,,,0.01,Wunderground v.1.15,2013-01-05 07:58:00,
2013-01-05 02:59:00,66.7,65.5,30.15,NNE,31,0.0,0.0,96,0.00,,,0.01,Wunderground v.1.15,2013-01-05 07:59:00,
2013-01-05 03:01:00,66.6,65.4,30.15,NNE,30,0.0,0.0,96,0.00,,,0.01,Wunderground v.1.15,2013-01-05 08:01:00,
2013-01-05 03:02:00,66.6,65.4,30.14,NNE,30,0.0,0.0,96,0.00,,,0.01,Wunderground v.1.15,2013-01-05 08:02:00,
2013-01-05 03:04:00,66.6,65.4,30.15,NNE,31,0.0,0.0,96,0.00,,,0.01,Wunderground v.1.15,2013-01-05 08:04:00,
2013-01-05 03:05:00,66.6,65.4,30.15,NNE,31,0.0,0.0,96,0.00,,,0.01,Wunderground v.1.15,2013-01-05 08:05:00,
2013-01-05 03:07:00,66.7,65.5,30.15,NNE,31,0.0,0.0,96,0.00,,,0.01,Wunderground v.1.15,2013-01-05 08:07:00,
2013-01-05 03:08:00,66.7,65.5,30.15,NNE,30,0.0,0.0,96,0.00,,,0.01,Wunderground v.1.15,2013-01-05 08:08:00,
2013-01-05 03:09:00,66.8,65.6,30.15,NNE,30,0.0,0.0,96,0.00,,,0.01,Wunderground v.1.15,2013-01-05 08:09:00,
2013-01-05 03:10:00,66.8,65.6,30.15,NNE,30,0.0,0.0,96,0.05,,,0.02,Wunderground v.1.15,2013-01-05 08:10:00,
2013-01-05 03:12:00,66.9,66.0,30.15,NNE,29,0.0,0.0,97,0.05,,,0.02,Wunderground v.1.15,2013-01-05 08:12:00,
2013-01-05 03:13:00,66.9,66.0,30.15,NNE,29,0.0,0.0,97,0.05,,,0.02,Wunderground v.1.15,2013-01-05 08:13:00,
2013-01-05 03:15:00,67.0,66.1,30.15,NNE,24,0.0,0.0,97,0.05,,,0.02,Wunderground v.1.15,2013-01-05 08:15:00,
2013-01-05 03:16:00,67.0,66.1,30.15,NNE,24,0.0,0.0,97,0.05,,,0.02,Wunderground v.1.15,2013-01-05 08:16:00,
2013-01-05 03:17:00,67.0,66.1,30.15,NNE,27,0.0,0.0,97,0.09,,,0.03,Wunderground v.1.15,2013-01-05 08:17:00,
2013-01-05 03:18:00,67.1,66.2,30.15,NNE,27,0.0,0.0,97,0.09,,,0.03,Wunderground v.1.15,2013-01-05 08:18:00,
2013-01-05 03:21:00,67.1,66.2,30.15,NNE,31,0.0,0.0,97,0.09,,,0.03,Wunderground v.1.15,2013-01-05 08:21:00,
2013-01-05 03:24:00,67.1,66.2,30.15,NNE,32,0.0,0.0,97,0.08,,,0.03,Wunderground v.1.15,2013-01-05 08:24:00,
2013-01-05 03:26:00,67.1,66.2,30.15,North,360,0.0,0.0,97,0.06,,,0.03,Wunderground v.1.15,2013-01-05 08:26:00,
2013-01-05 03:29:00,67.1,66.2,30.15,NNE,22,0.0,0.0,97,0.05,,,0.03,Wunderground v.1.15,2013-01-05 08:29:00,
2013-01-05 03:30:00,67.1,66.2,30.15,North,360,0.0,0.0,97,0.05,,,0.03,Wunderground v.1.15,2013-01-05 08:30:00,
2013-01-05 03:31:00,67.1,66.2,30.15,North,360,0.0,0.0,97,0.04,,,0.03,Wunderground v.1.15,2013-01-05 08:31:00,
2013-01-05 03:32:00,67.1,66.2,30.15,North,360,0.0,0.0,97,0.04,,,0.03,Wunderground v.1.15,2013-01-05 08:32:00,
2013-01-05 03:34:00,67.1,66.2,30.15,North,360,0.0,0.0,97,0.00,,,0.03,Wunderground v.1.15,2013-01-05 08:34:00,
2013-01-05 03:35:00,67.1,66.2,30.15,North,360,0.0,0.0,97,0.00,,,0.03,Wunderground v.1.15,2013-01-05 08:35:00,
2013-01-05 03:37:00,67.0,66.1,30.15,North,360,0.0,0.0,97,0.00,,,0.03,Wunderground v.1.15,2013-01-05 08:37:00,
2013-01-05 03:39:00,67.0,66.1,30.15,NNE,23,0.0,0.0,97,0.00,,,0.03,Wunderground v.1.15,2013-01-05 08:39:00,
2013-01-05 03:40:00,67.0,66.1,30.15,NNE,23,0.0,0.0,97,0.00,,,0.03,Wunderground v.1.15,2013-01-05 08:40:00,
2013-01-05 03:42:00,67.0,66.1,30.15,NNE,23,0.0,0.0,97,0.00,,,0.03,Wunderground v.1.15,2013-01-05 08:42:00,
2013-01-05 03:45:00,67.1,66.2,30.15,North,360,0.0,0.0,97,0.00,,,0.03,Wunderground v.1.15,2013-01-05 08:45:00,
2013-01-05 03:46:00,67.0,66.1,30.15,North,360,0.0,0.0,97,0.00,,,0.03,Wunderground v.1.15,2013-01-05 08:46:00,
2013-01-05 03:47:00,67.0,66.1,30.15,North,360,0.0,0.0,97,0.00,,,0.03,Wunderground v.1.15,2013-01-05 08:47:00,
2013-01-05 03:50:00,67.0,66.1,30.15,North,9,0.0,0.0,97,0.00,,,0.03,Wunderground v.1.15,2013-01-05 08:50:00,
2013-01-05 03:52:00,67.0,66.1,30.15,North,360,0.0,0.0,97,0.00,,,0.03,Wunderground v.1.15,2013-01-05 08:52:00,
2013-01-05 03:53:00,67.0,66.1,30.15,North,360,0.0,0.0,97,0.00,,,0.03,Wunderground v.1.15,2013-01-05 08:53:00,
2013-01-05 03:55:00,67.0,66.1,30.15,North,360,0.0,0.0,97,0.00,,,0.03,Wunderground v.1.15,2013-01-05 08:55:00,
2013-01-05 03:57:00,67.0,66.1,30.15,North,360,0.0,0.0,97,0.00,,,0.03,Wunderground v.1.15,2013-01-05 08:57:00,
2013-01-05 03:58:00,67.0,66.1,30.15,North,360,0.0,0.0,97,0.00,,,0.03,Wunderground v.1.15,2013-01-05 08:58:00,
2013-01-05 03:59:00,67.0,66.1,30.15,North,360,0.0,0.0,97,0.00,,,0.03,Wunderground v.1.15,2013-01-05 08:59:00,
2013-01-05 04:02:00,67.0,66.1,30.15,NNE,17,0.0,0.0,97,0.00,,,0.03,Wunderground v.1.15,2013-01-05 09:02:00,
2013-01-05 04:03:00,67.0,66.1,30.15,NNE,32,0.0,0.0,97,0.00,,,0.03,Wunderground v.1.15,2013-01-05 09:03:00,
2013-01-05 04:04:00,67.0,66.1,30.15,NNW,331,0.0,0.0,97,0.00,,,0.03,Wunderground v.1.15,2013-01-05 09:04:00,
2013-01-05 04:07:00,66.9,66.0,30.15,NNW,345,0.0,0.0,97,0.00,,,0.03,Wunderground v.1.15,2013-01-05 09:07:00,
2013-01-05 04:08:00,66.9,66.0,30.15,North,355,0.0,0.0,97,0.00,,,0.03,Wunderground v.1.15,2013-01-05 09:08:00,
2013-01-05 04:09:00,66.9,66.0,30.15,NNE,21,0.0,0.0,97,0.00,,,0.03,Wunderground v.1.15,2013-01-05 09:09:00,
2013-01-05 04:10:00,66.9,66.0,30.15,NNE,22,0.0,0.0,97,0.00,,,0.03,Wunderground v.1.15,2013-01-05 09:10:00,
2013-01-05 04:12:00,66.9,66.0,30.16,NNE,24,0.0,0.0,97,0.00,,,0.03,Wunderground v.1.15,2013-01-05 09:12:00,
2013-01-05 04:13:00,66.8,65.9,30.16,NNE,23,0.0,0.0,97,0.00,,,0.03,Wunderground v.1.15,2013-01-05 09:13:00,
2013-01-05 04:14:00,66.8,65.9,30.16,NNE,18,0.0,0.0,97,0.00,,,0.03,Wunderground v.1.15,2013-01-05 09:14:00,
2013-01-05 04:15:00,66.8,65.9,30.16,NNE,18,0.0,0.0,97,0.00,,,0.03,Wunderground v.1.15,2013-01-05 09:15:00,
2013-01-05 04:18:00,66.8,65.9,30.16,NNE,22,0.0,0.0,97,0.00,,,0.03,Wunderground v.1.15,2013-01-05 09:18:00,
2013-01-05 04:19:00,66.8,65.9,30.16,NNE,24,0.0,0.0,97,0.00,,,0.03,Wunderground v.1.15,2013-01-05 09:19:00,
2013-01-05 04:21:00,66.8,65.9,30.16,NNE,24,0.0,0.0,97,0.00,,,0.03,Wunderground v.1.15,2013-01-05 09:21:00,
2013-01-05 04:23:00,66.8,65.9,30.15,NNE,25,0.0,0.0,97,0.00,,,0.03,Wunderground v.1.15,2013-01-05 09:23:00,
2013-01-05 04:25:00,66.8,65.9,30.15,NNE,25,0.0,0.0,97,0.00,,,0.03,Wunderground v.1.15,2013-01-05 09:25:00,
2013-01-05 04:26:00,66.8,65.9,30.16,NNE,25,0.0,0.0,97,0.00,,,0.03,Wunderground v.1.15,2013-01-05 09:26:00,
2013-01-05 04:28:00,66.9,66.0,30.16,NNE,25,0.0,0.0,97,0.00,,,0.03,Wunderground v.1.15,2013-01-05 09:28:00,
2013-01-05 04:31:00,66.9,66.0,30.16,NNE,26,0.0,0.0,97,0.00,,,0.03,Wunderground v.1.15,2013-01-05 09:31:00,
2013-01-05 04:33:00,66.9,66.0,30.15,NNE,26,0.0,0.0,97,0.00,,,0.03,Wunderground v.1.15,2013-01-05 09:33:00,
2013-01-05 04:34:00,66.9,66.0,30.15,NNE,26,0.0,0.0,97,0.00,,,0.03,Wunderground v.1.15,2013-01-05 09:34:00,
2013-01-05 04:36:00,66.9,66.0,30.15,NNE,19,0.0,0.0,97,0.00,,,0.03,Wunderground v.1.15,2013-01-05 09:36:00,
2013-01-05 04:37:00,66.9,66.0,30.15,NNE,15,0.0,0.0,97,0.00,,,0.03,Wunderground v.1.15,2013-01-05 09:37:00,
2013-01-05 04:39:00,66.9,66.0,30.15,North,360,0.0,0.0,97,0.00,,,0.03,Wunderground v.1.15,2013-01-05 09:39:00,
2013-01-05 04:42:00,66.9,66.0,30.16,North,360,0.0,0.0,97,0.00,,,0.03,Wunderground v.1.15,2013-01-05 09:42:00,
2013-01-05 04:44:00,66.8,65.9,30.16,North,355,0.0,0.0,97,0.00,,,0.03,Wunderground v.1.15,2013-01-05 09:44:00,
2013-01-05 04:45:00,66.8,65.9,30.16,NNE,30,0.0,0.0,97,0.00,,,0.03,Wunderground v.1.15,2013-01-05 09:45:00,
2013-01-05 04:47:00,66.8,65.9,30.15,North,11,0.0,0.0,97,0.00,,,0.03,Wunderground v.1.15,2013-01-05 09:47:00,
2013-01-05 04:48:00,66.8,65.9,30.15,North,10,0.0,0.0,97,0.00,,,0.03,Wunderground v.1.15,2013-01-05 09:48:00,
2013-01-05 04:50:00,66.8,65.9,30.15,North,355,0.0,0.0,97,0.00,,,0.03,Wunderground v.1.15,2013-01-05 09:50:00,
2013-01-05 04:51:00,66.8,65.9,30.15,North,355,0.0,0.0,97,0.00,,,0.03,Wunderground v.1.15,2013-01-05 09:51:00,
2013-01-05 04:52:00,66.8,65.9,30.15,North,355,0.0,0.0,97,0.00,,,0.03,Wunderground v.1.15,2013-01-05 09:52:00,
2013-01-05 04:53:00,66.8,65.9,30.15,NNE,19,0.0,0.0,97,0.00,,,0.03,Wunderground v.1.15,2013-01-05 09:53:00,
2013-01-05 04:55:00,66.8,65.9,30.15,NNE,17,0.0,0.0,97,0.00,,,0.03,Wunderground v.1.15,2013-01-05 09:55:00,
2013-01-05 04:57:00,66.8,65.9,30.15,North,360,0.0,0.0,97,0.00,,,0.03,Wunderground v.1.15,2013-01-05 09:57:00,
2013-01-05 04:59:00,66.8,65.9,30.15,NNE,17,0.0,0.0,97,0.00,,,0.03,Wunderground v.1.15,2013-01-05 09:59:00,
2013-01-05 05:00:00,66.8,65.9,30.16,NNE,15,0.0,0.0,97,0.00,,,0.03,Wunderground v.1.15,2013-01-05 10:00:00,
2013-01-05 05:02:00,66.8,65.9,30.16,NNE,15,0.0,0.0,97,0.00,,,0.03,Wunderground v.1.15,2013-01-05 10:02:00,
2013-01-05 05:03:00,66.8,65.9,30.16,NNE,15,0.0,0.0,97,0.00,,,0.03,Wunderground v.1.15,2013-01-05 10:03:00,
2013-01-05 05:04:00,66.8,65.9,30.16,NNE,19,0.0,0.0,97,0.00,,,0.03,Wunderground v.1.15,2013-01-05 10:04:00,
2013-01-05 05:05:00,66.8,65.9,30.16,NNE,27,0.0,0.0,97,0.00,,,0.03,Wunderground v.1.15,2013-01-05 10:05:00,
2013-01-05 05:07:00,66.7,65.8,30.16,North,355,0.0,0.0,97,0.00,,,0.03,Wunderground v.1.15,2013-01-05 10:07:00,
2013-01-05 05:08:00,66.7,65.8,30.16,NNE,18,0.0,0.0,97,0.00,,,0.03,Wunderground v.1.15,2013-01-05 10:08:00,
2013-01-05 05:09:00,66.7,65.8,30.16,NNE,13,0.0,0.0,97,0.00,,,0.03,Wunderground v.1.15,2013-01-05 10:09:00,
2013-01-05 05:12:00,66.7,65.8,30.16,NNE,19,0.0,0.0,97,0.00,,,0.03,Wunderground v.1.15,2013-01-05 10:12:00,
2013-01-05 05:13:00,66.7,65.8,30.16,North,11,0.0,0.0,97,0.00,,,0.03,Wunderground v.1.15,2013-01-05 10:13:00,
2013-01-05 05:14:00,66.7,65.8,30.16,NNW,344,0.0,0.0,97,0.00,,,0.03,Wunderground v.1.15,2013-01-05 10:14:00,
2013-01-05 05:17:00,66.7,65.8,30.16,North,355,0.0,0.0,97,0.00,,,0.03,Wunderground v.1.15,2013-01-05 10:17:00,
2013-01-05 05:18:00,66.7,65.8,30.16,North,360,0.0,0.0,97,0.00,,,0.03,Wunderground v.1.15,2013-01-05 10:18:00,
2013-01-05 05:21:00,66.7,65.8,30.16,North,355,0.0,0.0,97,0.00,,,0.03,Wunderground v.1.15,2013-01-05 10:21:00,
2013-01-05 05:23:00,66.7,65.8,30.16,North,360,0.0,0.0,97,0.00,,,0.03,Wunderground v.1.15,2013-01-05 10:23:00,
2013-01-05 05:26:00,66.6,65.7,30.16,North,5,0.0,0.0,97,0.00,,,0.03,Wunderground v.1.15,2013-01-05 10:26:00,
2013-01-05 05:28:00,66.6,65.7,30.17,North,5,0.0,0.0,97,0.00,,,0.03,Wunderground v.1.15,2013-01-05 10:28:00,
2013-01-05 05:29:00,66.6,65.7,30.17,North,5,0.0,0.0,97,0.00,,,0.03,Wunderground v.1.15,2013-01-05 10:29:00,
2013-01-05 05:32:00,66.6,65.7,30.17,North,5,0.0,0.0,97,0.00,,,0.03,Wunderground v.1.15,2013-01-05 10:32:00,
2013-01-05 05:34:00,66.7,65.8,30.17,North,355,0.0,0.0,97,0.00,,,0.03,Wunderground v.1.15,2013-01-05 10:34:00,
2013-01-05 05:37:00,66.6,65.7,30.17,North,355,0.0,0.0,97,0.00,,,0.03,Wunderground v.1.15,2013-01-05 10:37:00,
2013-01-05 05:39:00,66.6,65.7,30.17,North,355,0.0,0.0,97,0.00,,,0.03,Wunderground v.1.15,2013-01-05 10:39:00,
2013-01-05 05:40:00,66.7,65.8,30.17,North,355,0.0,0.0,97,0.00,,,0.03,Wunderground v.1.15,2013-01-05 10:40:00,
2013-01-05 05:43:00,66.7,65.8,30.16,North,360,0.0,0.0,97,0.00,,,0.03,Wunderground v.1.15,2013-01-05 10:43:00,
2013-01-05 05:45:00,66.7,65.8,30.17,North,355,0.0,0.0,97,0.00,,,0.03,Wunderground v.1.15,2013-01-05 10:45:00,
2013-01-05 05:47:00,66.7,65.8,30.16,North,355,0.0,0.0,97,0.00,,,0.03,Wunderground v.1.15,2013-01-05 10:47:00,
2013-01-05 05:48:00,66.7,65.8,30.16,North,355,0.0,0.0,97,0.00,,,0.03,Wunderground v.1.15,2013-01-05 10:48:00,
2013-01-05 05:50:00,66.7,65.8,30.17,NNE,26,0.0,0.0,97,0.00,,,0.03,Wunderground v.1.15,2013-01-05 10:50:00,
2013-01-05 05:51:00,66.7,65.8,30.17,North,11,0.0,0.0,97,0.00,,,0.03,Wunderground v.1.15,2013-01-05 10:51:00,
2013-01-05 05:52:00,66.7,65.8,30.17,North,11,0.0,0.0,97,0.00,,,0.03,Wunderground v.1.15,2013-01-05 10:52:00,
2013-01-05 05:53:00,66.7,65.8,30.17,North,11,0.0,0.0,97,0.00,,,0.03,Wunderground v.1.15,2013-01-05 10:53:00,
2013-01-05 05:55:00,66.7,65.8,30.17,North,11,0.0,0.0,97,0.00,,,0.03,Wunderground v.1.15,2013-01-05 10:55:00,
2013-01-05 05:57:00,66.7,65.8,30.17,North,11,0.0,0.0,97,0.00,,,0.03,Wunderground v.1.15,2013-01-05 10:57:00,
2013-01-05 05:59:00,66.8,65.9,30.17,North,11,0.0,0.0,97,0.00,,,0.03,Wunderground v.1.15,2013-01-05 10:59:00,
2013-01-05 06:00:00,66.7,65.8,30.17,North,11,0.0,0.0,97,0.00,,,0.03,Wunderground v.1.15,2013-01-05 11:00:00,
2013-01-05 06:02:00,66.8,65.9,30.17,North,11,0.0,0.0,97,0.00,,,0.03,Wunderground v.1.15,2013-01-05 11:02:00,
2013-01-05 06:03:00,66.8,65.9,30.17,North,11,0.0,0.0,97,0.00,,,0.03,Wunderground v.1.15,2013-01-05 11:03:00,
2013-01-05 06:04:00,66.7,65.8,30.17,North,11,0.0,0.0,97,0.00,,,0.03,Wunderground v.1.15,2013-01-05 11:04:00,
2013-01-05 06:05:00,66.8,65.9,30.17,North,11,0.0,0.0,97,0.00,,,0.03,Wunderground v.1.15,2013-01-05 11:05:00,
2013-01-05 06:08:00,66.7,65.8,30.17,North,11,0.0,0.0,97,0.00,,,0.03,Wunderground v.1.15,2013-01-05 11:08:00,
2013-01-05 06:09:00,66.8,65.9,30.17,North,11,0.0,0.0,97,0.00,,,0.03,Wunderground v.1.15,2013-01-05 11:09:00,
2013-01-05 06:11:00,66.8,65.9,30.17,North,11,0.0,0.0,97,0.00,,,0.03,Wunderground v.1.15,2013-01-05 11:11:00,
2013-01-05 06:13:00,66.8,65.9,30.17,North,11,0.0,0.0,97,0.00,,,0.03,Wunderground v.1.15,2013-01-05 11:13:00,
2013-01-05 06:14:00,66.8,65.9,30.17,North,10,0.0,0.0,97,0.00,,,0.03,Wunderground v.1.15,2013-01-05 11:14:00,
2013-01-05 06:16:00,66.8,65.9,30.17,North,360,0.0,0.0,97,0.00,,,0.03,Wunderground v.1.15,2013-01-05 11:16:00,
2013-01-05 06:18:00,66.7,65.8,30.18,North,5,0.0,0.0,97,0.00,,,0.03,Wunderground v.1.15,2013-01-05 11:18:00,
2013-01-05 06:19:00,66.7,65.8,30.17,North,5,0.0,0.0,97,0.00,,,0.03,Wunderground v.1.15,2013-01-05 11:19:00,
2013-01-05 06:20:00,66.7,65.8,30.17,North,360,0.0,0.0,97,0.00,,,0.03,Wunderground v.1.15,2013-01-05 11:20:00,
2013-01-05 06:21:00,66.7,65.8,30.17,North,5,0.0,0.0,97,0.00,,,0.03,Wunderground v.1.15,2013-01-05 11:21:00,
2013-01-05 06:23:00,66.7,65.8,30.17,North,9,0.0,0.0,97,0.00,,,0.03,Wunderground v.1.15,2013-01-05 11:23:00,
2013-01-05 06:25:00,66.7,65.8,30.17,North,355,0.0,0.0,97,0.00,,,0.03,Wunderground v.1.15,2013-01-05 11:25:00,
2013-01-05 06:26:00,66.7,65.8,30.17,North,5,0.0,0.0,97,0.00,,,0.03,Wunderground v.1.15,2013-01-05 11:26:00,
2013-01-05 06:27:00,66.7,65.8,30.17,North,5,0.0,0.0,97,0.00,,,0.03,Wunderground v.1.15,2013-01-05 11:27:00,
2013-01-05 06:29:00,66.7,65.8,30.17,North,360,0.0,0.0,97,0.00,,,0.03,Wunderground v.1.15,2013-01-05 11:29:00,
2013-01-05 06:30:00,66.7,65.8,30.17,North,355,0.0,0.0,97,0.00,,,0.03,Wunderground v.1.15,2013-01-05 11:30:00,
2013-01-05 06:32:00,66.7,65.8,30.17,North,355,0.0,0.0,97,0.00,,,0.03,Wunderground v.1.15,2013-01-05 11:32:00,
2013-01-05 06:33:00,66.7,65.8,30.17,North,355,0.0,0.0,97,0.00,,,0.03,Wunderground v.1.15,2013-01-05 11:33:00,
2013-01-05 06:35:00,66.6,65.7,30.18,NNE,13,0.0,0.0,97,0.00,,,0.03,Wunderground v.1.15,2013-01-05 11:35:00,
2013-01-05 06:37:00,66.6,65.7,30.18,North,5,0.0,0.0,97,0.00,,,0.03,Wunderground v.1.15,2013-01-05 11:37:00,
2013-01-05 06:38:00,66.7,65.8,30.18,North,5,0.0,0.0,97,0.00,,,0.03,Wunderground v.1.15,2013-01-05 11:38:00,
2013-01-05 06:40:00,66.7,65.8,30.18,North,5,0.0,0.0,97,0.00,,,0.03,Wunderground v.1.15,2013-01-05 11:40:00,
2013-01-05 06:42:00,66.7,65.8,30.18,North,9,0.0,0.0,97,0.00,,,0.03,Wunderground v.1.15,2013-01-05 11:42:00,
2013-01-05 06:44:00,66.7,65.8,30.18,NNE,22,0.0,0.0,97,0.00,,,0.03,Wunderground v.1.15,2013-01-05 11:44:00,
2013-01-05 06:45:00,66.7,65.8,30.18,NNE,22,0.0,0.0,97,0.00,,,0.03,Wunderground v.1.15,2013-01-05 11:45:00,
2013-01-05 06:48:00,66.7,65.8,30.17,NNE,17,0.0,0.0,97,0.00,,,0.03,Wunderground v.1.15,2013-01-05 11:48:00,
2013-01-05 06:49:00,66.7,65.8,30.17,NNE,17,0.0,0.0,97,0.00,,,0.03,Wunderground v.1.15,2013-01-05 11:49:00,
2013-01-05 06:51:00,66.7,65.8,30.18,NNE,16,0.0,0.0,97,0.00,,,0.03,Wunderground v.1.15,2013-01-05 11:51:00,
2013-01-05 06:54:00,66.6,65.7,30.18,NNE,13,0.0,0.0,97,0.00,,,0.03,Wunderground v.1.15,2013-01-05 11:54:00,
2013-01-05 06:56:00,66.5,65.6,30.18,NNE,14,0.0,0.0,97,0.00,,,0.03,Wunderground v.1.15,2013-01-05 11:56:00,
2013-01-05 06:58:00,66.5,65.6,30.18,NNE,15,0.0,0.0,97,0.00,,,0.03,Wunderground v.1.15,2013-01-05 11:58:00,
2013-01-05 06:59:00,66.5,65.6,30.18,NNE,15,0.0,0.0,97,0.00,,,0.03,Wunderground v.1.15,2013-01-05 11:59:00,
2013-01-05 07:00:00,66.5,65.6,30.18,NNE,14,0.0,0.0,97,0.00,,,0.03,Wunderground v.1.15,2013-01-05 12:00:00,
2013-01-05 07:01:00,66.5,65.6,30.18,NNE,14,0.0,0.0,97,0.00,,,0.03,Wunderground v.1.15,2013-01-05 12:01:00,
2013-01-05 07:03:00,66.5,65.6,30.19,NNE,14,0.0,0.0,97,0.00,,,0.03,Wunderground v.1.15,2013-01-05 12:03:00,
2013-01-05 07:05:00,66.5,65.6,30.18,North,11,0.0,0.0,97,0.00,,,0.03,Wunderground v.1.15,2013-01-05 12:05:00,
2013-01-05 07:07:00,66.5,65.6,30.19,North,11,0.0,0.0,97,0.00,,,0.03,Wunderground v.1.15,2013-01-05 12:07:00,
2013-01-05 07:09:00,66.5,65.6,30.19,North,11,0.0,0.0,97,0.00,,,0.03,Wunderground v.1.15,2013-01-05 12:09:00,
2013-01-05 07:10:00,66.5,65.6,30.18,NNE,12,0.0,0.0,97,0.00,,,0.03,Wunderground v.1.15,2013-01-05 12:10:00,
2013-01-05 07:11:00,66.5,65.6,30.18,NNE,12,0.0,0.0,97,0.00,,,0.03,Wunderground v.1.15,2013-01-05 12:11:00,
2013-01-05 07:13:00,66.6,65.7,30.19,NNE,12,0.0,0.0,97,0.00,,,0.03,Wunderground v.1.15,2013-01-05 12:13:00,
2013-01-05 07:14:00,66.6,65.7,30.19,NNE,12,0.0,0.0,97,0.00,,,0.03,Wunderground v.1.15,2013-01-05 12:14:00,
2013-01-05 07:15:00,66.6,65.7,30.19,NNE,12,0.0,0.0,97,0.00,,,0.03,Wunderground v.1.15,2013-01-05 12:15:00,
2013-01-05 07:17:00,66.6,65.7,30.19,NNE,12,0.0,0.0,97,0.00,,,0.03,Wunderground v.1.15,2013-01-05 12:17:00,
2013-01-05 07:18:00,66.6,65.7,30.19,NNE,12,0.0,0.0,97,0.00,,,0.03,Wunderground v.1.15,2013-01-05 12:18:00,
2013-01-05 07:20:00,66.6,65.7,30.19,North,11,0.0,0.0,97,0.00,,,0.03,Wunderground v.1.15,2013-01-05 12:20:00,
2013-01-05 07:22:00,66.6,65.7,30.19,North,5,0.0,0.0,97,0.00,,,0.03,Wunderground v.1.15,2013-01-05 12:22:00,
2013-01-05 07:23:00,66.7,65.8,30.19,North,5,0.0,0.0,97,0.00,,,0.03,Wunderground v.1.15,2013-01-05 12:23:00,
2013-01-05 07:25:00,66.7,65.8,30.19,North,355,0.0,0.0,97,0.00,,,0.03,Wunderground v.1.15,2013-01-05 12:25:00,
2013-01-05 07:28:00,66.7,65.8,30.19,North,5,0.0,0.0,97,0.00,,,0.03,Wunderground v.1.15,2013-01-05 12:28:00,
2013-01-05 07:29:00,66.7,65.8,30.19,North,5,0.0,0.0,97,0.00,,,0.03,Wunderground v.1.15,2013-01-05 12:29:00,
2013-01-05 07:30:00,66.7,65.8,30.19,North,5,0.0,0.0,97,0.00,,,0.03,Wunderground v.1.15,2013-01-05 12:30:00,
2013-01-05 07:31:00,66.8,65.9,30.20,North,9,0.0,0.0,97,0.00,,,0.03,Wunderground v.1.15,2013-01-05 12:31:00,
2013-01-05 07:33:00,66.8,65.9,30.20,North,5,0.0,0.0,97,0.00,,,0.03,Wunderground v.1.15,2013-01-05 12:33:00,
2013-01-05 07:34:00,66.9,66.0,30.20,North,5,0.0,0.0,97,0.00,,,0.03,Wunderground v.1.15,2013-01-05 12:34:00,
2013-01-05 07:36:00,66.9,66.0,30.20,North,5,0.0,0.0,97,0.00,,,0.03,Wunderground v.1.15,2013-01-05 12:36:00,
2013-01-05 07:38:00,66.9,66.0,30.19,North,5,0.0,0.0,97,0.00,,,0.03,Wunderground v.1.15,2013-01-05 12:38:00,
2013-01-05 07:39:00,67.0,66.1,30.19,North,5,0.0,0.0,97,0.00,,,0.03,Wunderground v.1.15,2013-01-05 12:39:00,
2013-01-05 07:41:00,67.0,66.1,30.19,North,5,0.0,0.0,97,0.00,,,0.03,Wunderground v.1.15,2013-01-05 12:41:00,
2013-01-05 07:42:00,67.1,66.2,30.19,North,5,0.0,0.0,97,0.00,,,0.03,Wunderground v.1.15,2013-01-05 12:42:00,
2013-01-05 07:43:00,67.0,66.1,30.19,North,5,0.0,0.0,97,0.00,,,0.03,Wunderground v.1.15,2013-01-05 12:43:00,
2013-01-05 07:45:00,67.0,66.1,30.19,North,5,0.0,0.0,97,0.00,,,0.03,Wunderground v.1.15,2013-01-05 12:45:00,
2013-01-05 07:46:00,67.0,66.1,30.20,North,5,0.0,0.0,97,0.00,,,0.03,Wunderground v.1.15,2013-01-05 12:46:00,
2013-01-05 07:48:00,67.1,66.2,30.19,North,5,0.0,0.0,97,0.00,,,0.03,Wunderground v.1.15,2013-01-05 12:48:00,
2013-01-05 07:50:00,67.2,66.3,30.20,North,5,0.0,0.0,97,0.00,,,0.03,Wunderground v.1.15,2013-01-05 12:50:00,
2013-01-05 07:51:00,67.2,66.3,30.20,North,5,0.0,0.0,97,0.00,,,0.03,Wunderground v.1.15,2013-01-05 12:51:00,
2013-01-05 07:53:00,67.3,66.4,30.20,North,5,0.0,0.0,97,0.00,,,0.03,Wunderground v.1.15,2013-01-05 12:53:00,
2013-01-05 07:56:00,67.4,66.5,30.20,North,5,0.0,0.0,97,0.00,,,0.03,Wunderground v.1.15,2013-01-05 12:56:00,
2013-01-05 07:57:00,67.4,66.5,30.20,North,5,0.0,0.0,97,0.00,,,0.03,Wunderground v.1.15,2013-01-05 12:57:00,
2013-01-05 07:58:00,67.5,66.3,30.20,North,5,0.0,0.0,96,0.00,,,0.03,Wunderground v.1.15,2013-01-05 12:58:00,
2013-01-05 07:59:00,67.6,66.7,30.20,North,5,0.0,0.0,97,0.00,,,0.03,Wunderground v.1.15,2013-01-05 12:59:00,
2013-01-05 08:01:00,67.6,66.4,30.20,North,5,0.0,0.0,96,0.00,,,0.03,Wunderground v.1.15,2013-01-05 13:01:00,
2013-01-05 08:02:00,67.6,66.4,30.20,North,5,0.0,0.0,96,0.00,,,0.03,Wunderground v.1.15,2013-01-05 13:02:00,
2013-01-05 08:04:00,67.6,66.4,30.20,North,355,0.0,0.0,96,0.00,,,0.03,Wunderground v.1.15,2013-01-05 13:04:00,
2013-01-05 08:06:00,67.7,66.8,30.20,North,355,0.0,0.0,97,0.00,,,0.03,Wunderground v.1.15,2013-01-05 13:06:00,
2013-01-05 08:07:00,67.7,66.8,30.20,North,360,0.0,0.0,97,0.00,,,0.03,Wunderground v.1.15,2013-01-05 13:07:00,
2013-01-05 08:09:00,67.6,66.4,30.20,North,355,0.0,0.0,96,0.00,,,0.03,Wunderground v.1.15,2013-01-05 13:09:00,
2013-01-05 08:12:00,67.6,66.4,30.21,North,360,0.0,0.0,96,0.00,,,0.03,Wunderground v.1.15,2013-01-05 13:12:00,
2013-01-05 08:13:00,67.7,66.5,30.21,North,11,0.0,0.0,96,0.00,,,0.03,Wunderground v.1.15,2013-01-05 13:13:00,
2013-01-05 08:14:00,67.7,66.5,30.21,NNE,12,0.0,0.0,96,0.00,,,0.03,Wunderground v.1.15,2013-01-05 13:14:00,
2013-01-05 08:17:00,67.8,66.6,30.21,North,5,0.0,0.0,96,0.00,,,0.03,Wunderground v.1.15,2013-01-05 13:17:00,
2013-01-05 08:18:00,67.9,66.7,30.21,North,5,0.0,0.0,96,0.00,,,0.03,Wunderground v.1.15,2013-01-05 13:18:00,
2013-01-05 08:20:00,68.1,66.9,30.21,North,9,0.0,0.0,96,0.00,,,0.03,Wunderground v.1.15,2013-01-05 13:20:00,
2013-01-05 08:23:00,68.3,67.1,30.20,North,5,0.0,0.0,96,0.00,,,0.03,Wunderground v.1.15,2013-01-05 13:23:00,
2013-01-05 08:24:00,68.3,67.1,30.21,North,11,0.0,0.0,96,0.00,,,0.03,Wunderground v.1.15,2013-01-05 13:24:00,
2013-01-05 08:25:00,68.3,67.1,30.21,North,11,0.0,0.0,96,0.00,,,0.03,Wunderground v.1.15,2013-01-05 13:25:00,
2013-01-05 08:28:00,68.3,67.1,30.21,North,5,0.0,0.0,96,0.00,,,0.03,Wunderground v.1.15,2013-01-05 13:28:00,
2013-01-05 08:30:00,68.3,67.1,30.21,North,5,0.0,0.0,96,0.00,,,0.03,Wunderground v.1.15,2013-01-05 13:30:00,
2013-01-05 08:31:00,68.3,67.1,30.21,North,5,0.0,0.0,96,0.00,,,0.03,Wunderground v.1.15,2013-01-05 13:31:00,
2013-01-05 08:33:00,68.3,67.1,30.21,NNW,346,0.0,0.0,96,0.00,,,0.03,Wunderground v.1.15,2013-01-05 13:33:00,
2013-01-05 08:34:00,68.3,67.1,30.21,NNW,346,0.0,0.0,96,0.00,,,0.03,Wunderground v.1.15,2013-01-05 13:34:00,
2013-01-05 08:35:00,68.4,67.2,30.21,North,355,0.0,0.0,96,0.00,,,0.03,Wunderground v.1.15,2013-01-05 13:35:00,
2013-01-05 08:36:00,68.4,67.2,30.21,North,11,0.0,0.0,96,0.00,,,0.03,Wunderground v.1.15,2013-01-05 13:36:00,
2013-01-05 08:38:00,68.4,67.2,30.21,North,11,0.0,0.0,96,0.00,,,0.03,Wunderground v.1.15,2013-01-05 13:38:00,
2013-01-05 08:39:00,68.4,67.2,30.21,North,11,0.0,0.0,96,0.00,,,0.03,Wunderground v.1.15,2013-01-05 13:39:00,
2013-01-05 08:41:00,68.4,66.9,30.21,NNE,20,0.0,0.0,95,0.00,,,0.03,Wunderground v.1.15,2013-01-05 13:41:00,
2013-01-05 08:44:00,68.4,66.9,30.21,NE,40,0.0,0.0,95,0.00,,,0.03,Wunderground v.1.15,2013-01-05 13:44:00,
2013-01-05 08:46:00,68.4,66.9,30.21,ENE,68,0.0,0.0,95,0.00,,,0.03,Wunderground v.1.15,2013-01-05 13:46:00,
2013-01-05 08:47:00,68.4,66.9,30.21,ENE,68,0.0,0.0,95,0.00,,,0.03,Wunderground v.1.15,2013-01-05 13:47:00,
2013-01-05 08:49:00,68.4,66.9,30.21,NNE,19,0.0,0.0,95,0.00,,,0.03,Wunderground v.1.15,2013-01-05 13:49:00,
2013-01-05 08:50:00,68.4,66.9,30.21,NNE,16,0.0,0.0,95,0.00,,,0.03,Wunderground v.1.15,2013-01-05 13:50:00,
2013-01-05 08:52:00,68.5,67.0,30.21,NNE,15,0.0,0.0,95,0.00,,,0.03,Wunderground v.1.15,2013-01-05 13:52:00,
2013-01-05 08:55:00,68.5,67.0,30.21,NNE,21,0.0,0.0,95,0.00,,,0.03,Wunderground v.1.15,2013-01-05 13:55:00,
2013-01-05 08:57:00,68.6,67.1,30.21,NNE,23,0.0,0.0,95,0.00,,,0.03,Wunderground v.1.15,2013-01-05 13:57:00,
2013-01-05 09:00:00,68.8,67.3,30.22,NNE,22,0.0,0.0,95,0.00,,,0.03,Wunderground v.1.15,2013-01-05 14:00:00,
2013-01-05 09:01:00,68.8,67.3,30.22,NNE,22,0.0,0.0,95,0.00,,,0.03,Wunderground v.1.15,2013-01-05 14:01:00,
2013-01-05 09:02:00,68.9,67.4,30.22,NNE,21,0.0,0.0,95,0.00,,,0.03,Wunderground v.1.15,2013-01-05 14:02:00,
2013-01-05 09:05:00,69.0,67.5,30.21,NNE,17,0.0,0.0,95,0.00,,,0.03,Wunderground v.1.15,2013-01-05 14:05:00,
2013-01-05 09:06:00,69.0,67.5,30.21,NNE,26,0.0,0.0,95,0.00,,,0.03,Wunderground v.1.15,2013-01-05 14:06:00,
2013-01-05 09:07:00,69.0,67.5,30.21,NNE,23,0.0,0.0,95,0.00,,,0.03,Wunderground v.1.15,2013-01-05 14:07:00,
2013-01-05 09:08:00,69.1,67.6,30.21,NNE,21,0.0,0.0,95,0.00,,,0.03,Wunderground v.1.15,2013-01-05 14:08:00,
2013-01-05 09:11:00,69.2,67.7,30.21,NE,38,0.0,0.0,95,0.00,,,0.03,Wunderground v.1.15,2013-01-05 14:11:00,
2013-01-05 09:12:00,69.2,67.7,30.21,NE,38,0.0,0.0,95,0.00,,,0.03,Wunderground v.1.15,2013-01-05 14:12:00,
2013-01-05 09:13:00,69.2,67.7,30.21,NE,38,0.0,0.0,95,0.00,,,0.03,Wunderground v.1.15,2013-01-05 14:13:00,
2013-01-05 09:16:00,69.5,68.0,30.21,NE,47,0.0,0.0,95,0.00,,,0.03,Wunderground v.1.15,2013-01-05 14:16:00,
2013-01-05 09:17:00,69.5,68.0,30.22,NE,46,0.0,0.0,95,0.00,,,0.03,Wunderground v.1.15,2013-01-05 14:17:00,
2013-01-05 09:18:00,69.5,68.0,30.22,NE,46,0.0,0.0,95,0.00,,,0.03,Wunderground v.1.15,2013-01-05 14:18:00,
2013-01-05 09:22:00,69.7,67.9,30.22,NE,45,0.0,0.0,94,0.00,,,0.03,Wunderground v.1.15,2013-01-05 14:22:00,
2013-01-05 09:23:00,69.7,67.9,30.22,NE,45,0.0,0.0,94,0.00,,,0.03,Wunderground v.1.15,2013-01-05 14:23:00,
2013-01-05 09:27:00,70.0,68.2,30.21,NNE,17,0.0,0.0,94,0.00,,,0.03,Wunderground v.1.15,2013-01-05 14:27:00,
2013-01-05 09:28:00,70.0,68.2,30.21,North,10,0.0,0.0,94,0.00,,,0.03,Wunderground v.1.15,2013-01-05 14:28:00,
2013-01-05 09:32:00,70.3,68.5,30.21,North,5,0.0,0.0,94,0.00,,,0.03,Wunderground v.1.15,2013-01-05 14:32:00,
2013-01-05 09:33:00,70.4,68.6,30.21,North,5,0.0,0.0,94,0.00,,,0.03,Wunderground v.1.15,2013-01-05 14:33:00,
2013-01-05 09:34:00,70.5,68.7,30.21,NNE,16,0.0,0.0,94,0.00,,,0.03,Wunderground v.1.15,2013-01-05 14:34:00,
2013-01-05 09:38:00,70.7,68.9,30.21,NNE,24,0.0,0.0,94,0.00,,,0.03,Wunderground v.1.15,2013-01-05 14:38:00,
2013-01-05 09:39:00,70.7,68.9,30.21,NNE,28,0.0,0.0,94,0.00,,,0.03,Wunderground v.1.15,2013-01-05 14:39:00,
2013-01-05 09:43:00,70.9,69.1,30.21,NNE,19,0.0,0.0,94,0.00,,,0.03,Wunderground v.1.15,2013-01-05 14:43:00,
2013-01-05 09:44:00,70.9,69.1,30.22,NNE,19,0.0,0.0,94,0.00,,,0.03,Wunderground v.1.15,2013-01-05 14:44:00,
2013-01-05 09:48:00,71.3,69.2,30.21,NNE,16,0.0,0.0,93,0.00,,,0.03,Wunderground v.1.15,2013-01-05 14:48:00,
2013-01-05 09:49:00,71.3,69.2,30.22,NNE,32,0.0,0.0,93,0.00,,,0.03,Wunderground v.1.15,2013-01-05 14:49:00,
2013-01-05 09:50:00,71.3,69.2,30.22,NNE,33,0.0,0.0,93,0.00,,,0.03,Wunderground v.1.15,2013-01-05 14:50:00,
2013-01-05 09:54:00,71.3,69.2,30.22,NNE,25,0.0,0.0,93,0.00,,,0.03,Wunderground v.1.15,2013-01-05 14:54:00,
2013-01-05 09:55:00,71.4,69.3,30.22,NNE,22,0.0,0.0,93,0.00,,,0.03,Wunderground v.1.15,2013-01-05 14:55:00,
2013-01-05 09:56:00,71.5,69.4,30.22,NNE,15,0.0,0.0,93,0.00,,,0.03,Wunderground v.1.15,2013-01-05 14:56:00,
2013-01-05 09:59:00,71.6,69.5,30.21,NNE,17,0.0,0.0,93,0.00,,,0.03,Wunderground v.1.15,2013-01-05 14:59:00,
2013-01-05 10:00:00,71.6,69.5,30.21,NNE,30,0.0,0.0,93,0.00,,,0.03,Wunderground v.1.15,2013-01-05 15:00:00,
2013-01-05 10:02:00,71.6,69.2,30.21,North,5,0.0,0.0,92,0.00,,,0.03,Wunderground v.1.15,2013-01-05 15:02:00,
2013-01-05 10:05:00,71.6,69.2,30.21,ENE,78,0.0,0.0,92,0.00,,,0.03,Wunderground v.1.15,2013-01-05 15:05:00,
2013-01-05 10:06:00,71.6,69.2,30.21,NNE,32,0.0,0.0,92,0.00,,,0.03,Wunderground v.1.15,2013-01-05 15:06:00,
2013-01-05 10:07:00,71.6,69.2,30.21,NNE,18,0.0,0.0,92,0.00,,,0.03,Wunderground v.1.15,2013-01-05 15:07:00,
2013-01-05 10:11:00,72.0,69.5,30.22,North,360,0.0,0.0,92,0.00,,,0.03,Wunderground v.1.15,2013-01-05 15:11:00,
2013-01-05 10:13:00,72.1,69.6,30.21,NE,44,0.0,0.0,92,0.00,,,0.03,Wunderground v.1.15,2013-01-05 15:13:00,
2013-01-05 10:16:00,72.0,69.2,30.21,NE,34,0.0,0.0,91,0.00,,,0.03,Wunderground v.1.15,2013-01-05 15:16:00,
2013-01-05 10:18:00,72.1,69.6,30.21,NNE,19,0.0,0.0,92,0.00,,,0.03,Wunderground v.1.15,2013-01-05 15:18:00,
2013-01-05 10:21:00,72.2,69.4,30.21,ENE,59,0.0,0.0,91,0.00,,,0.03,Wunderground v.1.15,2013-01-05 15:21:00,
2013-01-05 10:24:00,72.1,69.3,30.21,NNE,31,0.0,0.0,91,0.00,,,0.03,Wunderground v.1.15,2013-01-05 15:24:00,
2013-01-05 10:26:00,72.1,69.3,30.22,North,355,0.0,0.0,91,0.00,,,0.03,Wunderground v.1.15,2013-01-05 15:26:00,
2013-01-05 10:27:00,72.1,69.3,30.22,North,355,0.0,0.0,91,0.00,,,0.03,Wunderground v.1.15,2013-01-05 15:27:00,
2013-01-05 10:29:00,72.3,69.5,30.21,North,355,0.0,0.0,91,0.00,,,0.03,Wunderground v.1.15,2013-01-05 15:29:00,
2013-01-05 10:32:00,72.5,69.7,30.21,NNW,342,0.0,0.0,91,0.00,,,0.03,Wunderground v.1.15,2013-01-05 15:32:00,
2013-01-05 10:33:00,72.5,69.7,30.21,NE,50,0.0,0.0,91,0.00,,,0.03,Wunderground v.1.15,2013-01-05 15:33:00,
2013-01-05 10:34:00,72.5,69.7,30.21,NE,40,0.0,0.0,91,0.00,,,0.03,Wunderground v.1.15,2013-01-05 15:34:00,
2013-01-05 10:37:00,72.5,69.4,30.21,NNE,18,0.0,0.0,90,0.00,,,0.03,Wunderground v.1.15,2013-01-05 15:37:00,
2013-01-05 10:38:00,72.4,69.3,30.21,NE,44,0.0,0.0,90,0.00,,,0.03,Wunderground v.1.15,2013-01-05 15:38:00,
2013-01-05 10:39:00,72.4,69.3,30.21,NE,41,0.0,0.0,90,0.00,,,0.03,Wunderground v.1.15,2013-01-05 15:39:00,
2013-01-05 10:40:00,72.3,69.2,30.21,NE,42,0.0,0.0,90,0.00,,,0.03,Wunderground v.1.15,2013-01-05 15:40:00,
2013-01-05 10:43:00,72.4,69.6,30.21,NE,34,0.0,0.0,91,0.00,,,0.03,Wunderground v.1.15,2013-01-05 15:43:00,
2013-01-05 10:44:00,72.4,69.3,30.21,NE,42,0.0,0.0,90,0.00,,,0.03,Wunderground v.1.15,2013-01-05 15:44:00,
2013-01-05 10:45:00,72.3,69.2,30.21,NE,49,0.0,0.0,90,0.00,,,0.03,Wunderground v.1.15,2013-01-05 15:45:00,
2013-01-05 10:48:00,72.4,69.3,30.21,NE,44,0.0,0.0,90,0.00,,,0.03,Wunderground v.1.15,2013-01-05 15:48:00,
2013-01-05 10:49:00,72.4,69.3,30.21,NE,44,0.0,0.0,90,0.00,,,0.03,Wunderground v.1.15,2013-01-05 15:49:00,
2013-01-05 10:50:00,72.6,69.8,30.21,North,5,0.0,0.0,91,0.00,,,0.03,Wunderground v.1.15,2013-01-05 15:50:00,
2013-01-05 10:54:00,72.9,69.8,30.20,NNE,13,0.0,0.0,90,0.00,,,0.03,Wunderground v.1.15,2013-01-05 15:54:00,
2013-01-05 10:55:00,73.0,69.9,30.20,NNE,15,0.0,0.0,90,0.00,,,0.03,Wunderground v.1.15,2013-01-05 15:55:00,
2013-01-05 10:56:00,73.0,69.9,30.20,NNE,15,0.0,0.0,90,0.00,,,0.03,Wunderground v.1.15,2013-01-05 15:56:00,
2013-01-05 11:00:00,73.1,70.0,30.20,NNE,31,0.0,0.0,90,0.00,,,0.03,Wunderground v.1.15,2013-01-05 16:00:00,
2013-01-05 11:01:00,73.1,69.7,30.20,NNE,31,0.0,0.0,89,0.00,,,0.03,Wunderground v.1.15,2013-01-05 16:01:00,
2013-01-05 11:02:00,73.2,70.1,30.20,NNE,30,0.0,0.0,90,0.00,,,0.03,Wunderground v.1.15,2013-01-05 16:02:00,
2013-01-05 11:05:00,73.2,69.8,30.20,NNE,12,0.0,0.0,89,0.00,,,0.03,Wunderground v.1.15,2013-01-05 16:05:00,
2013-01-05 11:06:00,73.3,69.9,30.20,NNE,28,0.0,0.0,89,0.00,,,0.03,Wunderground v.1.15,2013-01-05 16:06:00,
2013-01-05 11:07:00,73.3,69.9,30.20,North,9,0.0,0.0,89,0.00,,,0.03,Wunderground v.1.15,2013-01-05 16:07:00,
2013-01-05 11:10:00,73.3,69.9,30.20,NNE,29,0.0,0.0,89,0.00,,,0.03,Wunderground v.1.15,2013-01-05 16:10:00,
2013-01-05 11:11:00,73.3,69.9,30.20,NNE,26,0.0,0.0,89,0.00,,,0.03,Wunderground v.1.15,2013-01-05 16:11:00,
2013-01-05 11:12:00,73.2,69.8,30.20,NNE,21,0.0,0.0,89,0.00,,,0.03,Wunderground v.1.15,2013-01-05 16:12:00,
2013-01-05 11:16:00,73.3,69.9,30.20,ENE,59,0.0,0.0,89,0.00,,,0.03,Wunderground v.1.15,2013-01-05 16:16:00,
2013-01-05 11:18:00,73.4,70.0,30.20,ENE,63,0.0,0.0,89,0.00,,,0.03,Wunderground v.1.15,2013-01-05 16:18:00,
2013-01-05 11:21:00,73.4,70.0,30.20,ENE,59,0.0,0.0,89,0.00,,,0.03,Wunderground v.1.15,2013-01-05 16:21:00,
2013-01-05 11:22:00,73.4,70.0,30.20,ENE,59,0.0,0.0,89,0.00,,,0.03,Wunderground v.1.15,2013-01-05 16:22:00,
2013-01-05 11:23:00,73.7,70.3,30.20,ENE,59,0.0,0.0,89,0.00,,,0.03,Wunderground v.1.15,2013-01-05 16:23:00,
2013-01-05 11:24:00,73.9,70.8,30.20,NE,48,0.0,0.0,90,0.00,,,0.03,Wunderground v.1.15,2013-01-05 16:24:00,
2013-01-05 11:26:00,74.2,70.7,30.20,NNE,32,0.0,0.0,89,0.00,,,0.03,Wunderground v.1.15,2013-01-05 16:26:00,
2013-01-05 11:27:00,74.4,70.9,30.20,NNE,32,0.0,0.0,89,0.00,,,0.03,Wunderground v.1.15,2013-01-05 16:27:00,
2013-01-05 11:28:00,74.7,71.2,30.20,NNE,18,0.0,0.0,89,0.00,,,0.03,Wunderground v.1.15,2013-01-05 16:28:00,
2013-01-05 11:29:00,74.8,71.0,30.20,North,355,0.0,0.0,88,0.00,,,0.03,Wunderground v.1.15,2013-01-05 16:29:00,
2013-01-05 11:31:00,74.9,70.8,30.20,NE,40,0.0,0.0,87,0.00,,,0.03,Wunderground v.1.15,2013-01-05 16:31:00,
2013-01-05 11:32:00,74.9,70.8,30.19,NNE,33,0.0,0.0,87,0.00,,,0.03,Wunderground v.1.15,2013-01-05 16:32:00,
2013-01-05 11:34:00,75.0,70.9,30.19,NE,36,0.0,0.0,87,0.00,,,0.03,Wunderground v.1.15,2013-01-05 16:34:00,
2013-01-05 11:35:00,75.0,70.9,30.19,North,5,0.0,0.0,87,0.00,,,0.03,Wunderground v.1.15,2013-01-05 16:35:00,
2013-01-05 11:36:00,75.0,70.5,30.19,North,360,0.0,0.0,86,0.00,,,0.03,Wunderground v.1.15,2013-01-05 16:36:00,
2013-01-05 11:37:00,75.1,70.6,30.19,NE,53,0.0,0.0,86,0.00,,,0.03,Wunderground v.1.15,2013-01-05 16:37:00,
2013-01-05 11:39:00,75.3,70.5,30.19,NNE,14,0.0,0.0,85,0.00,,,0.03,Wunderground v.1.15,2013-01-05 16:39:00,
2013-01-05 11:40:00,75.4,70.6,30.19,NNE,14,0.0,0.0,85,0.00,,,0.03,Wunderground v.1.15,2013-01-05 16:40:00,
2013-01-05 11:41:00,75.5,71.0,30.19,NE,50,0.0,0.0,86,0.00,,,0.03,Wunderground v.1.15,2013-01-05 16:41:00,
2013-01-05 11:43:00,75.8,71.3,30.19,East,100,0.0,0.0,86,0.00,,,0.03,Wunderground v.1.15,2013-01-05 16:43:00,
2013-01-05 11:45:00,75.8,70.6,30.19,ENE,70,0.0,0.0,84,0.00,,,0.03,Wunderground v.1.15,2013-01-05 16:45:00,
2013-01-05 11:47:00,75.8,70.6,30.19,NNE,30,0.0,0.0,84,0.00,,,0.03,Wunderground v.1.15,2013-01-05 16:47:00,
2013-01-05 11:50:00,76.5,71.7,30.19,NNW,346,0.0,0.0,85,0.00,,,0.03,Wunderground v.1.15,2013-01-05 16:50:00,
2013-01-05 11:51:00,76.5,71.7,30.19,NNE,14,0.0,0.0,85,0.00,,,0.03,Wunderground v.1.15,2013-01-05 16:51:00,
2013-01-05 11:53:00,76.6,71.0,30.19,NNE,13,0.0,0.0,83,0.00,,,0.03,Wunderground v.1.15,2013-01-05 16:53:00,
2013-01-05 11:55:00,76.4,70.9,30.19,NE,40,0.0,0.0,83,0.00,,,0.03,Wunderground v.1.15,2013-01-05 16:55:00,
2013-01-05 11:56:00,76.4,70.9,30.18,North,10,0.0,0.0,83,0.00,,,0.03,Wunderground v.1.15,2013-01-05 16:56:00,
2013-01-05 11:57:00,76.4,70.9,30.18,NNE,28,0.0,0.0,83,0.00,,,0.03,Wunderground v.1.15,2013-01-05 16:57:00,
2013-01-05 11:58:00,76.4,70.9,30.18,NNW,348,0.0,0.0,83,0.00,,,0.03,Wunderground v.1.15,2013-01-05 16:58:00,
2013-01-05 12:01:00,76.4,70.5,30.18,East,83,0.0,0.0,82,0.00,,,0.03,Wunderground v.1.15,2013-01-05 17:01:00,
2013-01-05 12:02:00,76.3,70.8,30.18,NE,40,0.0,0.0,83,0.00,,,0.03,Wunderground v.1.15,2013-01-05 17:02:00,
2013-01-05 12:03:00,76.1,69.8,30.18,NE,55,0.0,0.0,81,0.00,,,0.03,Wunderground v.1.15,2013-01-05 17:03:00,
2013-01-05 12:06:00,75.8,70.3,30.18,NE,34,0.0,0.0,83,0.00,,,0.03,Wunderground v.1.15,2013-01-05 17:06:00,
2013-01-05 12:08:00,76.0,70.5,30.18,NNE,20,0.0,0.0,83,0.00,,,0.03,Wunderground v.1.15,2013-01-05 17:08:00,
2013-01-05 12:09:00,76.2,71.0,30.18,NNE,21,0.0,0.0,84,0.00,,,0.03,Wunderground v.1.15,2013-01-05 17:09:00,
2013-01-05 12:12:00,76.6,71.4,30.18,NNE,20,0.0,0.0,84,0.00,,,0.03,Wunderground v.1.15,2013-01-05 17:12:00,
2013-01-05 12:13:00,76.7,71.1,30.18,NE,51,0.0,0.0,83,0.00,,,0.03,Wunderground v.1.15,2013-01-05 17:13:00,
2013-01-05 12:16:00,76.8,70.9,30.17,ENE,62,0.0,0.0,82,0.00,,,0.03,Wunderground v.1.15,2013-01-05 17:16:00,
2013-01-05 12:17:00,76.6,70.7,30.17,NNE,17,0.0,0.0,82,0.00,,,0.03,Wunderground v.1.15,2013-01-05 17:17:00,
2013-01-05 12:19:00,76.5,70.9,30.17,North,355,0.0,0.0,83,0.00,,,0.03,Wunderground v.1.15,2013-01-05 17:19:00,
2013-01-05 12:21:00,76.5,70.9,30.17,NNE,15,0.0,0.0,83,0.00,,,0.03,Wunderground v.1.15,2013-01-05 17:21:00,
2013-01-05 12:22:00,76.5,70.9,30.17,ENE,67,0.0,0.0,83,0.00,,,0.03,Wunderground v.1.15,2013-01-05 17:22:00,
2013-01-05 12:24:00,76.4,70.9,30.17,NE,52,0.0,0.0,83,0.00,,,0.03,Wunderground v.1.15,2013-01-05 17:24:00,
2013-01-05 12:26:00,76.2,71.0,30.17,NNE,28,0.0,0.0,84,0.00,,,0.03,Wunderground v.1.15,2013-01-05 17:26:00,
2013-01-05 12:28:00,76.2,70.7,30.17,NNE,32,0.0,0.0,83,0.00,,,0.03,Wunderground v.1.15,2013-01-05 17:28:00,
2013-01-05 12:29:00,76.2,70.7,30.17,NE,47,0.0,0.0,83,0.00,,,0.03,Wunderground v.1.15,2013-01-05 17:29:00,
2013-01-05 12:30:00,76.2,71.0,30.17,NE,47,0.0,0.0,84,0.00,,,0.03,Wunderground v.1.15,2013-01-05 17:30:00,
2013-01-05 12:31:00,76.5,71.3,30.16,ENE,63,0.0,0.0,84,0.00,,,0.03,Wunderground v.1.15,2013-01-05 17:31:00,
2013-01-05 12:33:00,76.6,71.4,30.17,NNE,19,0.0,0.0,84,0.00,,,0.03,Wunderground v.1.15,2013-01-05 17:33:00,
2013-01-05 12:34:00,77.0,71.8,30.16,NNE,32,0.0,0.0,84,0.00,,,0.03,Wunderground v.1.15,2013-01-05 17:34:00,
2013-01-05 12:35:00,77.1,71.9,30.16,ENE,63,0.0,0.0,84,0.00,,,0.03,Wunderground v.1.15,2013-01-05 17:35:00,
2013-01-05 12:37:00,77.4,71.8,30.16,NNE,21,0.0,0.0,83,0.00,,,0.03,Wunderground v.1.15,2013-01-05 17:37:00,
2013-01-05 12:38:00,77.6,72.0,30.16,NNE,19,0.0,0.0,83,0.00,,,0.03,Wunderground v.1.15,2013-01-05 17:38:00,
2013-01-05 12:39:00,78.2,72.6,30.16,ENE,59,0.0,0.0,83,0.00,,,0.03,Wunderground v.1.15,2013-01-05 17:39:00,
2013-01-05 12:40:00,78.2,72.3,30.16,East,82,0.0,0.0,82,0.00,,,0.03,Wunderground v.1.15,2013-01-05 17:40:00,
2013-01-05 12:43:00,78.9,72.9,30.16,North,5,0.0,0.0,82,0.00,,,0.03,Wunderground v.1.15,2013-01-05 17:43:00,
2013-01-05 12:44:00,79.2,72.9,30.16,ESE,109,0.0,0.0,81,0.00,,,0.03,Wunderground v.1.15,2013-01-05 17:44:00,
2013-01-05 12:45:00,79.2,72.9,30.16,NE,35,0.0,0.0,81,0.00,,,0.03,Wunderground v.1.15,2013-01-05 17:45:00,
2013-01-05 12:46:00,79.2,72.5,30.16,NNE,19,0.0,0.0,80,0.00,,,0.03,Wunderground v.1.15,2013-01-05 17:46:00,
2013-01-05 12:49:00,78.8,72.1,30.15,NE,39,0.0,0.0,80,0.00,,,0.03,Wunderground v.1.15,2013-01-05 17:49:00,
2013-01-05 12:50:00,78.9,72.2,30.15,East,80,0.0,0.0,80,0.00,,,0.03,Wunderground v.1.15,2013-01-05 17:50:00,
2013-01-05 12:51:00,78.8,71.7,30.15,NNE,31,0.0,0.0,79,0.00,,,0.03,Wunderground v.1.15,2013-01-05 17:51:00,
2013-01-05 12:54:00,78.2,71.5,30.15,NE,37,0.0,0.0,80,0.00,,,0.03,Wunderground v.1.15,2013-01-05 17:54:00,
2013-01-05 12:55:00,78.0,71.3,30.15,NNE,23,0.0,0.0,80,0.00,,,0.03,Wunderground v.1.15,2013-01-05 17:55:00,
2013-01-05 12:56:00,77.9,71.6,30.15,NE,42,0.0,0.0,81,0.00,,,0.03,Wunderground v.1.15,2013-01-05 17:56:00,
2013-01-05 13:00:00,77.9,72.0,30.15,East,93,0.0,0.0,82,0.00,,,0.03,Wunderground v.1.15,2013-01-05 18:00:00,
2013-01-05 13:01:00,77.7,71.4,30.15,ENE,75,0.0,0.0,81,0.00,,,0.03,Wunderground v.1.15,2013-01-05 18:01:00,
2013-01-05 13:02:00,77.5,71.2,30.15,ENE,75,0.0,0.0,81,0.00,,,0.03,Wunderground v.1.15,2013-01-05 18:02:00,
2013-01-05 13:05:00,77.5,71.6,30.15,NNE,13,0.0,0.0,82,0.00,,,0.03,Wunderground v.1.15,2013-01-05 18:05:00,
2013-01-05 13:06:00,77.5,71.9,30.15,North,350,0.0,0.0,83,0.00,,,0.03,Wunderground v.1.15,2013-01-05 18:06:00,
2013-01-05 13:07:00,77.6,72.0,30.15,NNE,12,0.0,0.0,83,0.00,,,0.03,Wunderground v.1.15,2013-01-05 18:07:00,
2013-01-05 13:11:00,77.6,72.0,30.15,ENE,61,0.0,0.0,83,0.00,,,0.03,Wunderground v.1.15,2013-01-05 18:11:00,
2013-01-05 13:12:00,77.7,72.1,30.14,ENE,64,0.0,0.0,83,0.00,,,0.03,Wunderground v.1.15,2013-01-05 18:12:00,
2013-01-05 13:16:00,77.4,71.5,30.14,ENE,62,0.0,0.0,82,0.00,,,0.03,Wunderground v.1.15,2013-01-05 18:16:00,
2013-01-05 13:17:00,77.4,71.5,30.14,NE,54,0.0,0.0,82,0.00,,,0.03,Wunderground v.1.15,2013-01-05 18:17:00,
2013-01-05 13:22:00,77.1,71.9,30.14,NE,40,0.0,0.0,84,0.00,,,0.03,Wunderground v.1.15,2013-01-05 18:22:00,
2013-01-05 13:23:00,77.2,72.0,30.14,NE,39,0.0,0.0,84,0.00,,,0.03,Wunderground v.1.15,2013-01-05 18:23:00,
2013-01-05 13:27:00,77.3,72.1,30.14,NE,53,0.0,0.0,84,0.00,,,0.03,Wunderground v.1.15,2013-01-05 18:27:00,
2013-01-05 13:28:00,77.3,71.7,30.14,NE,43,0.0,0.0,83,0.00,,,0.03,Wunderground v.1.15,2013-01-05 18:28:00,
2013-01-05 13:32:00,76.9,71.3,30.14,North,360,0.0,0.0,83,0.00,,,0.03,Wunderground v.1.15,2013-01-05 18:32:00,
2013-01-05 13:33:00,76.9,71.7,30.14,NNE,19,0.0,0.0,84,0.00,,,0.03,Wunderground v.1.15,2013-01-05 18:33:00,
2013-01-05 13:38:00,77.0,71.4,30.14,NE,53,0.0,0.0,83,0.00,,,0.03,Wunderground v.1.15,2013-01-05 18:38:00,
2013-01-05 13:39:00,77.0,71.4,30.13,NE,53,0.0,0.0,83,0.00,,,0.03,Wunderground v.1.15,2013-01-05 18:39:00,
2013-01-05 13:44:00,77.1,71.9,30.13,NE,36,0.0,0.0,84,0.00,,,0.03,Wunderground v.1.15,2013-01-05 18:44:00,
2013-01-05 13:49:00,76.7,71.1,30.13,NE,53,0.0,0.0,83,0.00,,,0.03,Wunderground v.1.15,2013-01-05 18:49:00,
2013-01-05 13:50:00,76.6,71.0,30.13,ENE,65,0.0,0.0,83,0.00,,,0.03,Wunderground v.1.15,2013-01-05 18:50:00,
2013-01-05 13:54:00,77.0,71.4,30.13,North,11,0.0,0.0,83,0.00,,,0.03,Wunderground v.1.15,2013-01-05 18:54:00,
2013-01-05 13:55:00,77.1,71.5,30.13,NE,37,0.0,0.0,83,0.00,,,0.03,Wunderground v.1.15,2013-01-05 18:55:00,
2013-01-05 13:56:00,77.1,71.5,30.13,NE,49,0.0,0.0,83,0.00,,,0.03,Wunderground v.1.15,2013-01-05 18:56:00,
2013-01-05 13:59:00,76.9,71.3,30.13,NNE,30,0.0,0.0,83,0.00,,,0.03,Wunderground v.1.15,2013-01-05 18:59:00,
2013-01-05 14:01:00,76.8,71.2,30.13,NNE,22,0.0,0.0,83,0.00,,,0.03,Wunderground v.1.15,2013-01-05 19:01:00,
2013-01-05 14:02:00,76.7,71.1,30.12,NNE,32,0.0,0.0,83,0.00,,,0.03,Wunderground v.1.15,2013-01-05 19:02:00,
2013-01-05 14:04:00,76.5,70.9,30.12,NE,34,0.0,0.0,83,0.00,,,0.03,Wunderground v.1.15,2013-01-05 19:04:00,
2013-01-05 14:06:00,76.6,71.4,30.12,NE,34,0.0,0.0,84,0.00,,,0.03,Wunderground v.1.15,2013-01-05 19:06:00,
2013-01-05 14:07:00,76.8,71.6,30.12,NNE,28,0.0,0.0,84,0.00,,,0.03,Wunderground v.1.15,2013-01-05 19:07:00,
2013-01-05 14:10:00,77.7,72.5,30.12,North,9,0.0,0.0,84,0.00,,,0.03,Wunderground v.1.15,2013-01-05 19:10:00,
2013-01-05 14:11:00,77.9,72.3,30.12,NNE,12,0.0,0.0,83,0.00,,,0.03,Wunderground v.1.15,2013-01-05 19:11:00,
2013-01-05 14:12:00,78.0,72.1,30.12,East,85,0.0,0.0,82,0.00,,,0.03,Wunderground v.1.15,2013-01-05 19:12:00,
2013-01-05 14:13:00,78.0,71.7,30.12,East,86,0.0,0.0,81,0.00,,,0.03,Wunderground v.1.15,2013-01-05 19:13:00,
2013-01-05 14:15:00,77.9,71.6,30.11,ENE,75,0.0,0.0,81,0.00,,,0.03,Wunderground v.1.15,2013-01-05 19:15:00,
2013-01-05 14:16:00,78.1,72.2,30.12,ENE,63,0.0,0.0,82,0.00,,,0.03,Wunderground v.1.15,2013-01-05 19:16:00,
2013-01-05 14:18:00,78.5,72.2,30.11,NE,54,0.0,0.0,81,0.00,,,0.03,Wunderground v.1.15,2013-01-05 19:18:00,
2013-01-05 14:19:00,78.8,72.1,30.11,ENE,67,0.0,0.0,80,0.00,,,0.03,Wunderground v.1.15,2013-01-05 19:19:00,
2013-01-05 14:21:00,78.9,72.6,30.11,NE,52,0.0,0.0,81,0.00,,,0.03,Wunderground v.1.15,2013-01-05 19:21:00,
2013-01-05 14:22:00,79.1,71.6,30.11,East,88,0.0,0.0,78,0.00,,,0.03,Wunderground v.1.15,2013-01-05 19:22:00,
2013-01-05 14:25:00,78.8,71.4,30.11,NE,46,0.0,0.0,78,0.00,,,0.03,Wunderground v.1.15,2013-01-05 19:25:00,
2013-01-05 14:26:00,78.5,71.1,30.11,NE,44,0.0,0.0,78,0.00,,,0.03,Wunderground v.1.15,2013-01-05 19:26:00,
2013-01-05 14:27:00,78.3,70.9,30.11,East,85,0.0,0.0,78,0.00,,,0.03,Wunderground v.1.15,2013-01-05 19:27:00,
2013-01-05 14:30:00,78.0,70.6,30.11,East,88,0.0,0.0,78,0.00,,,0.03,Wunderground v.1.15,2013-01-05 19:30:00,
2013-01-05 14:31:00,77.9,70.5,30.11,East,90,0.0,0.0,78,0.00,,,0.03,Wunderground v.1.15,2013-01-05 19:31:00,
2013-01-05 14:32:00,77.7,70.3,30.11,ENE,78,0.0,0.0,78,0.00,,,0.03,Wunderground v.1.15,2013-01-05 19:32:00,
2013-01-05 14:35:00,78.1,71.1,30.11,ESE,111,0.0,0.0,79,0.00,,,0.03,Wunderground v.1.15,2013-01-05 19:35:00,
2013-01-05 14:36:00,78.1,70.7,30.11,East,96,0.0,0.0,78,0.00,,,0.03,Wunderground v.1.15,2013-01-05 19:36:00,
2013-01-05 14:37:00,78.0,71.0,30.11,ESE,103,0.0,0.0,79,0.00,,,0.03,Wunderground v.1.15,2013-01-05 19:37:00,
2013-01-05 14:40:00,78.2,71.9,30.11,NE,45,0.0,0.0,81,0.00,,,0.04,Wunderground v.1.15,2013-01-05 19:40:00,
2013-01-05 14:41:00,78.3,72.0,30.11,ENE,76,0.0,0.0,81,0.00,,,0.04,Wunderground v.1.15,2013-01-05 19:41:00,
2013-01-05 14:42:00,78.3,71.6,30.11,NE,47,0.0,0.0,80,0.00,,,0.04,Wunderground v.1.15,2013-01-05 19:42:00,
2013-01-05 14:43:00,78.2,71.5,30.11,ENE,58,0.0,0.0,80,0.00,,,0.04,Wunderground v.1.15,2013-01-05 19:43:00,
2013-01-05 14:46:00,77.6,70.9,30.11,East,98,0.0,0.0,80,0.00,,,0.04,Wunderground v.1.15,2013-01-05 19:46:00,
2013-01-05 14:47:00,77.4,71.1,30.11,East,91,0.0,0.0,81,0.00,,,0.04,Wunderground v.1.15,2013-01-05 19:47:00,
2013-01-05 14:49:00,77.1,70.8,30.11,ENE,76,0.0,0.0,81,0.00,,,0.04,Wunderground v.1.15,2013-01-05 19:49:00,
2013-01-05 14:51:00,76.7,70.8,30.12,ENE,59,0.0,0.0,82,0.00,,,0.04,Wunderground v.1.15,2013-01-05 19:51:00,
2013-01-05 14:52:00,76.6,70.7,30.11,NE,55,0.0,0.0,82,0.00,,,0.04,Wunderground v.1.15,2013-01-05 19:52:00,
2013-01-05 14:54:00,76.4,70.9,30.11,NE,44,0.0,0.0,83,0.00,,,0.04,Wunderground v.1.15,2013-01-05 19:54:00,
2013-01-05 14:56:00,76.2,71.0,30.11,NE,42,0.0,0.0,84,0.00,,,0.04,Wunderground v.1.15,2013-01-05 19:56:00,
2013-01-05 14:57:00,76.2,71.0,30.12,NE,42,0.0,0.0,84,0.00,,,0.04,Wunderground v.1.15,2013-01-05 19:57:00,
2013-01-05 14:58:00,76.2,71.0,30.12,ENE,68,0.0,0.0,84,0.00,,,0.04,Wunderground v.1.15,2013-01-05 19:58:00,
2013-01-05 14:59:00,76.3,71.1,30.12,NNW,344,0.0,0.0,84,0.00,,,0.04,Wunderground v.1.15,2013-01-05 19:59:00,
2013-01-05 15:02:00,77.0,71.8,30.12,NNE,18,0.0,0.0,84,0.00,,,0.04,Wunderground v.1.15,2013-01-05 20:02:00,
2013-01-05 15:03:00,77.4,72.2,30.11,ENE,72,0.0,0.0,84,0.00,,,0.04,Wunderground v.1.15,2013-01-05 20:03:00,
2013-01-05 15:05:00,77.5,71.6,30.12,East,83,0.0,0.0,82,0.00,,,0.04,Wunderground v.1.15,2013-01-05 20:05:00,
2013-01-05 15:07:00,77.7,71.8,30.12,NE,54,0.0,0.0,82,0.00,,,0.04,Wunderground v.1.15,2013-01-05 20:07:00,
2013-01-05 15:08:00,77.7,71.8,30.12,NNE,32,0.0,0.0,82,0.00,,,0.04,Wunderground v.1.15,2013-01-05 20:08:00,
2013-01-05 15:09:00,77.8,71.5,30.12,NE,40,0.0,0.0,81,0.00,,,0.04,Wunderground v.1.15,2013-01-05 20:09:00,
2013-01-05 15:10:00,77.8,71.9,30.12,NE,39,0.0,0.0,82,0.00,,,0.04,Wunderground v.1.15,2013-01-05 20:10:00,
2013-01-05 15:12:00,77.8,71.5,30.12,NE,38,0.0,0.0,81,0.00,,,0.04,Wunderground v.1.15,2013-01-05 20:12:00,
2013-01-05 15:13:00,77.8,71.9,30.12,NE,46,0.0,0.0,82,0.00,,,0.04,Wunderground v.1.15,2013-01-05 20:13:00,
2013-01-05 15:14:00,77.8,71.9,30.12,NE,46,0.0,0.0,82,0.00,,,0.04,Wunderground v.1.15,2013-01-05 20:14:00,
2013-01-05 15:15:00,77.7,71.4,30.12,NE,48,0.0,0.0,81,0.00,,,0.04,Wunderground v.1.15,2013-01-05 20:15:00,
2013-01-05 15:18:00,77.6,71.7,30.12,NE,47,0.0,0.0,82,0.00,,,0.04,Wunderground v.1.15,2013-01-05 20:18:00,
2013-01-05 15:19:00,77.5,71.2,30.12,NE,49,0.0,0.0,81,0.00,,,0.04,Wunderground v.1.15,2013-01-05 20:19:00,
2013-01-05 15:21:00,77.3,71.4,30.12,NE,49,0.0,0.0,82,0.00,,,0.04,Wunderground v.1.15,2013-01-05 20:21:00,
2013-01-05 15:24:00,76.9,71.0,30.12,ENE,67,0.0,0.0,82,0.00,,,0.04,Wunderground v.1.15,2013-01-05 20:24:00,
2013-01-05 15:25:00,76.9,71.0,30.12,ENE,67,0.0,0.0,82,0.00,,,0.04,Wunderground v.1.15,2013-01-05 20:25:00,
2013-01-05 15:26:00,76.9,71.0,30.12,ENE,71,0.0,0.0,82,0.00,,,0.04,Wunderground v.1.15,2013-01-05 20:26:00,
2013-01-05 15:29:00,76.8,70.9,30.12,ENE,71,0.0,0.0,82,0.00,,,0.04,Wunderground v.1.15,2013-01-05 20:29:00,
2013-01-05 15:31:00,76.8,70.9,30.12,ENE,74,0.0,0.0,82,0.00,,,0.04,Wunderground v.1.15,2013-01-05 20:31:00,
2013-01-05 15:32:00,76.9,71.0,30.12,ENE,74,0.0,0.0,82,0.00,,,0.04,Wunderground v.1.15,2013-01-05 20:32:00,
2013-01-05 15:35:00,77.1,70.8,30.12,NE,35,0.0,0.0,81,0.00,,,0.04,Wunderground v.1.15,2013-01-05 20:35:00,
2013-01-05 15:36:00,77.3,71.4,30.12,East,79,0.0,0.0,82,0.00,,,0.04,Wunderground v.1.15,2013-01-05 20:36:00,
2013-01-05 15:38:00,77.6,71.7,30.12,ENE,67,0.0,0.0,82,0.00,,,0.04,Wunderground v.1.15,2013-01-05 20:38:00,
2013-01-05 15:41:00,78.1,71.8,30.12,NE,54,0.0,0.0,81,0.00,,,0.04,Wunderground v.1.15,2013-01-05 20:41:00,
2013-01-05 15:43:00,78.1,71.4,30.12,ENE,66,0.0,0.0,80,0.00,,,0.04,Wunderground v.1.15,2013-01-05 20:43:00,
2013-01-05 15:47:00,77.7,70.7,30.12,ENE,75,0.0,0.0,79,0.00,,,0.04,Wunderground v.1.15,2013-01-05 20:47:00,
2013-01-05 15:48:00,77.5,70.8,30.12,East,87,0.0,0.0,80,0.00,,,0.04,Wunderground v.1.15,2013-01-05 20:48:00,
2013-01-05 15:50:00,77.2,70.5,30.12,East,96,0.0,0.0,80,0.00,,,0.04,Wunderground v.1.15,2013-01-05 20:50:00,
2013-01-05 15:52:00,76.9,70.6,30.12,East,91,0.0,0.0,81,0.00,,,0.04,Wunderground v.1.15,2013-01-05 20:52:00,
2013-01-05 15:53:00,76.8,70.5,30.13,ENE,61,0.0,0.0,81,0.00,,,0.04,Wunderground v.1.15,2013-01-05 20:53:00,
2013-01-05 15:55:00,76.6,70.3,30.12,ENE,61,0.0,0.0,81,0.00,,,0.04,Wunderground v.1.15,2013-01-05 20:55:00,
2013-01-05 15:58:00,76.5,70.6,30.13,ENE,61,0.0,0.0,82,0.00,,,0.04,Wunderground v.1.15,2013-01-05 20:58:00,
2013-01-05 16:02:00,76.6,71.0,30.13,NNE,24,0.0,0.0,83,0.00,,,0.04,Wunderground v.1.15,2013-01-05 21:02:00,
2013-01-05 16:04:00,76.9,71.0,30.13,ENE,62,0.0,0.0,82,0.00,,,0.04,Wunderground v.1.15,2013-01-05 21:04:00,
2013-01-05 16:07:00,77.2,70.5,30.12,East,98,0.0,0.0,80,0.00,,,0.04,Wunderground v.1.15,2013-01-05 21:07:00,
2013-01-05 16:09:00,77.2,70.5,30.12,East,98,0.0,0.0,80,0.00,,,0.04,Wunderground v.1.15,2013-01-05 21:09:00,
2013-01-05 16:10:00,77.1,70.5,30.12,East,98,0.0,0.0,80,0.00,,,0.04,Wunderground v.1.15,2013-01-05 21:10:00,
2013-01-05 16:12:00,77.0,70.7,30.12,East,98,0.0,0.0,81,0.00,,,0.04,Wunderground v.1.15,2013-01-05 21:12:00,
2013-01-05 16:15:00,76.8,70.5,30.12,East,96,0.0,0.0,81,0.00,,,0.04,Wunderground v.1.15,2013-01-05 21:15:00,
2013-01-05 16:16:00,76.7,70.4,30.12,East,83,0.0,0.0,81,0.00,,,0.04,Wunderground v.1.15,2013-01-05 21:16:00,
2013-01-05 16:17:00,76.7,70.4,30.12,East,83,0.0,0.0,81,0.00,,,0.04,Wunderground v.1.15,2013-01-05 21:17:00,
2013-01-05 16:21:00,76.5,70.2,30.12,East,99,0.0,0.0,81,0.00,,,0.04,Wunderground v.1.15,2013-01-05 21:21:00,
2013-01-05 16:22:00,76.5,70.2,30.12,East,99,0.0,0.0,81,0.00,,,0.04,Wunderground v.1.15,2013-01-05 21:22:00,
2013-01-05 16:23:00,76.4,70.1,30.12,East,99,0.0,0.0,81,0.00,,,0.04,Wunderground v.1.15,2013-01-05 21:23:00,
2013-01-05 16:26:00,76.3,70.4,30.12,East,90,0.0,0.0,82,0.00,,,0.04,Wunderground v.1.15,2013-01-05 21:26:00,
2013-01-05 16:27:00,76.2,70.3,30.12,East,90,0.0,0.0,82,0.00,,,0.04,Wunderground v.1.15,2013-01-05 21:27:00,
2013-01-05 16:28:00,76.2,70.3,30.12,East,90,0.0,0.0,82,0.00,,,0.04,Wunderground v.1.15,2013-01-05 21:28:00,
2013-01-05 16:32:00,76.1,70.2,30.12,East,90,0.0,0.0,82,0.00,,,0.04,Wunderground v.1.15,2013-01-05 21:32:00,
2013-01-05 16:33:00,76.0,70.1,30.12,East,90,0.0,0.0,82,0.00,,,0.04,Wunderground v.1.15,2013-01-05 21:33:00,
2013-01-05 16:34:00,76.0,70.1,30.12,East,91,0.0,0.0,82,0.00,,,0.04,Wunderground v.1.15,2013-01-05 21:34:00,
2013-01-05 16:37:00,75.9,70.4,30.12,East,82,0.0,0.0,83,0.00,,,0.04,Wunderground v.1.15,2013-01-05 21:37:00,
2013-01-05 16:38:00,75.8,70.3,30.12,East,87,0.0,0.0,83,0.00,,,0.04,Wunderground v.1.15,2013-01-05 21:38:00,
2013-01-05 16:39:00,75.8,70.3,30.12,East,87,0.0,0.0,83,0.00,,,0.04,Wunderground v.1.15,2013-01-05 21:39:00,
2013-01-05 16:43:00,76.1,70.6,30.12,East,86,0.0,0.0,83,0.00,,,0.04,Wunderground v.1.15,2013-01-05 21:43:00,
2013-01-05 16:44:00,76.2,70.7,30.12,East,86,0.0,0.0,83,0.00,,,0.04,Wunderground v.1.15,2013-01-05 21:44:00,
2013-01-05 16:45:00,76.2,70.7,30.12,East,86,0.0,0.0,83,0.00,,,0.04,Wunderground v.1.15,2013-01-05 21:45:00,
2013-01-05 16:48:00,76.3,70.8,30.12,East,86,0.0,0.0,83,0.00,,,0.04,Wunderground v.1.15,2013-01-05 21:48:00,
2013-01-05 16:49:00,76.4,70.9,30.12,East,98,0.0,0.0,83,0.00,,,0.04,Wunderground v.1.15,2013-01-05 21:49:00,
2013-01-05 16:52:00,76.4,70.9,30.12,ESE,105,0.0,0.0,83,0.00,,,0.04,Wunderground v.1.15,2013-01-05 21:52:00,
2013-01-05 16:54:00,76.3,70.8,30.12,ESE,104,0.0,0.0,83,0.00,,,0.04,Wunderground v.1.15,2013-01-05 21:54:00,
2013-01-05 16:55:00,76.2,70.7,30.12,ESE,104,0.0,0.0,83,0.00,,,0.04,Wunderground v.1.15,2013-01-05 21:55:00,
2013-01-05 16:57:00,76.1,70.6,30.12,ESE,104,0.0,0.0,83,0.00,,,0.04,Wunderground v.1.15,2013-01-05 21:57:00,
2013-01-05 16:59:00,75.9,70.4,30.12,East,98,0.0,0.0,83,0.00,,,0.04,Wunderground v.1.15,2013-01-05 21:59:00,
2013-01-05 17:00:00,75.9,70.4,30.12,East,98,0.0,0.0,83,0.00,,,0.04,Wunderground v.1.15,2013-01-05 22:00:00,
2013-01-05 17:03:00,75.7,70.2,30.13,East,98,0.0,0.0,83,0.00,,,0.04,Wunderground v.1.15,2013-01-05 22:03:00,
2013-01-05 17:05:00,75.5,70.3,30.13,East,98,0.0,0.0,84,0.00,,,0.04,Wunderground v.1.15,2013-01-05 22:05:00,
2013-01-05 17:09:00,75.3,70.1,30.13,East,98,0.0,0.0,84,0.00,,,0.04,Wunderground v.1.15,2013-01-05 22:09:00,
2013-01-05 17:10:00,75.3,70.5,30.13,East,98,0.0,0.0,85,0.00,,,0.04,Wunderground v.1.15,2013-01-05 22:10:00,
2013-01-05 17:11:00,75.3,70.5,30.13,East,98,0.0,0.0,85,0.00,,,0.04,Wunderground v.1.15,2013-01-05 22:11:00,
2013-01-05 17:14:00,75.2,70.4,30.13,ESE,118,0.0,0.0,85,0.00,,,0.04,Wunderground v.1.15,2013-01-05 22:14:00,
2013-01-05 17:15:00,75.1,70.3,30.13,ESE,119,0.0,0.0,85,0.00,,,0.04,Wunderground v.1.15,2013-01-05 22:15:00,
2013-01-05 17:17:00,75.2,70.4,30.13,ESE,113,0.0,0.0,85,0.00,,,0.04,Wunderground v.1.15,2013-01-05 22:17:00,
2013-01-05 17:19:00,75.2,70.4,30.13,ESE,113,0.0,0.0,85,0.00,,,0.04,Wunderground v.1.15,2013-01-05 22:19:00,
2013-01-05 17:22:00,75.3,70.5,30.13,ESE,109,0.0,0.0,85,0.00,,,0.04,Wunderground v.1.15,2013-01-05 22:22:00,
2013-01-05 17:23:00,75.3,70.5,30.13,ESE,109,0.0,0.0,85,0.00,,,0.04,Wunderground v.1.15,2013-01-05 22:23:00,
2013-01-05 17:26:00,75.2,70.0,30.13,ESE,122,0.0,0.0,84,0.00,,,0.04,Wunderground v.1.15,2013-01-05 22:26:00,
2013-01-05 17:28:00,75.2,70.0,30.13,ESE,111,0.0,0.0,84,0.00,,,0.04,Wunderground v.1.15,2013-01-05 22:28:00,
2013-01-05 17:29:00,75.2,70.4,30.13,ESE,104,0.0,0.0,85,0.00,,,0.04,Wunderground v.1.15,2013-01-05 22:29:00,
2013-01-05 17:31:00,75.1,70.3,30.13,ESE,104,0.0,0.0,85,0.00,,,0.04,Wunderground v.1.15,2013-01-05 22:31:00,
2013-01-05 17:33:00,75.1,70.3,30.13,ESE,104,0.0,0.0,85,0.00,,,0.04,Wunderground v.1.15,2013-01-05 22:33:00,
2013-01-05 17:34:00,75.1,70.3,30.13,ESE,104,0.0,0.0,85,0.00,,,0.04,Wunderground v.1.15,2013-01-05 22:34:00,
2013-01-05 17:37:00,74.9,70.1,30.13,ESE,103,0.0,0.0,85,0.00,,,0.04,Wunderground v.1.15,2013-01-05 22:37:00,
2013-01-05 17:38:00,74.8,70.0,30.13,ESE,103,0.0,0.0,85,0.00,,,0.04,Wunderground v.1.15,2013-01-05 22:38:00,
2013-01-05 17:39:00,74.8,70.0,30.13,ESE,103,0.0,0.0,85,0.00,,,0.04,Wunderground v.1.15,2013-01-05 22:39:00,
2013-01-05 17:40:00,74.8,70.0,30.13,ESE,103,0.0,0.0,85,0.00,,,0.04,Wunderground v.1.15,2013-01-05 22:40:00,
2013-01-05 17:42:00,74.6,70.1,30.14,ESE,103,0.0,0.0,86,0.00,,,0.04,Wunderground v.1.15,2013-01-05 22:42:00,
2013-01-05 17:44:00,74.5,70.0,30.14,ESE,103,0.0,0.0,86,0.00,,,0.04,Wunderground v.1.15,2013-01-05 22:44:00,
2013-01-05 17:45:00,74.5,70.0,30.14,ESE,103,0.0,0.0,86,0.00,,,0.04,Wunderground v.1.15,2013-01-05 22:45:00,
2013-01-05 17:47:00,74.4,69.9,30.14,ESE,103,0.0,0.0,86,0.00,,,0.04,Wunderground v.1.15,2013-01-05 22:47:00,
2013-01-05 17:50:00,74.4,69.9,30.14,ESE,104,0.0,0.0,86,0.00,,,0.04,Wunderground v.1.15,2013-01-05 22:50:00,
2013-01-05 17:53:00,74.3,69.8,30.14,ESE,104,0.0,0.0,86,0.00,,,0.04,Wunderground v.1.15,2013-01-05 22:53:00,
2013-01-05 17:55:00,74.3,69.8,30.14,ESE,104,0.0,0.0,86,0.00,,,0.04,Wunderground v.1.15,2013-01-05 22:55:00,
2013-01-05 17:56:00,74.3,69.8,30.14,ESE,104,0.0,0.0,86,0.00,,,0.04,Wunderground v.1.15,2013-01-05 22:56:00,
2013-01-05 17:58:00,74.2,69.7,30.14,ESE,104,0.0,0.0,86,0.00,,,0.04,Wunderground v.1.15,2013-01-05 22:58:00,
2013-01-05 18:00:00,74.0,69.5,30.14,ESE,104,0.0,0.0,86,0.00,,,0.04,Wunderground v.1.15,2013-01-05 23:00:00,
2013-01-05 18:01:00,74.0,69.5,30.14,ESE,104,0.0,0.0,86,0.00,,,0.04,Wunderground v.1.15,2013-01-05 23:01:00,
2013-01-05 18:03:00,73.8,69.3,30.14,ESE,104,0.0,0.0,86,0.00,,,0.04,Wunderground v.1.15,2013-01-05 23:03:00,
2013-01-05 18:05:00,73.7,69.6,30.14,ESE,104,0.0,0.0,87,0.00,,,0.04,Wunderground v.1.15,2013-01-05 23:05:00,
2013-01-05 18:06:00,73.7,69.6,30.14,ESE,104,0.0,0.0,87,0.00,,,0.04,Wunderground v.1.15,2013-01-05 23:06:00,
2013-01-05 18:07:00,73.6,69.5,30.14,ESE,104,0.0,0.0,87,0.00,,,0.04,Wunderground v.1.15,2013-01-05 23:07:00,
2013-01-05 18:08:00,73.6,69.5,30.14,ESE,104,0.0,0.0,87,0.00,,,0.04,Wunderground v.1.15,2013-01-05 23:08:00,
2013-01-05 18:10:00,73.4,69.3,30.14,ESE,104,0.0,0.0,87,0.00,,,0.04,Wunderground v.1.15,2013-01-05 23:10:00,
2013-01-05 18:11:00,73.4,69.3,30.14,ESE,104,0.0,0.0,87,0.00,,,0.04,Wunderground v.1.15,2013-01-05 23:11:00,
2013-01-05 18:12:00,73.3,69.5,30.14,ESE,104,0.0,0.0,88,0.00,,,0.04,Wunderground v.1.15,2013-01-05 23:12:00,
2013-01-05 18:14:00,73.2,69.4,30.14,ESE,104,0.0,0.0,88,0.00,,,0.04,Wunderground v.1.15,2013-01-05 23:14:00,
2013-01-05 18:16:00,73.0,69.2,30.15,ESE,104,0.0,0.0,88,0.00,,,0.04,Wunderground v.1.15,2013-01-05 23:16:00,
2013-01-05 18:17:00,73.0,69.2,30.15,ESE,104,0.0,0.0,88,0.00,,,0.04,Wunderground v.1.15,2013-01-05 23:17:00,
2013-01-05 18:19:00,72.9,69.1,30.14,ESE,103,0.0,0.0,88,0.00,,,0.04,Wunderground v.1.15,2013-01-05 23:19:00,
2013-01-05 18:22:00,72.7,69.3,30.15,ESE,104,0.0,0.0,89,0.00,,,0.04,Wunderground v.1.15,2013-01-05 23:22:00,
2013-01-05 18:23:00,72.7,69.3,30.15,ESE,103,0.0,0.0,89,0.00,,,0.04,Wunderground v.1.15,2013-01-05 23:23:00,
2013-01-05 18:24:00,72.7,69.3,30.15,ESE,103,0.0,0.0,89,0.00,,,0.04,Wunderground v.1.15,2013-01-05 23:24:00,
2013-01-05 18:27:00,72.6,69.2,30.15,ESE,103,0.0,0.0,89,0.00,,,0.04,Wunderground v.1.15,2013-01-05 23:27:00,
2013-01-05 18:28:00,72.5,69.1,30.15,ESE,103,0.0,0.0,89,0.00,,,0.04,Wunderground v.1.15,2013-01-05 23:28:00,
2013-01-05 18:29:00,72.5,69.1,30.15,ESE,103,0.0,0.0,89,0.00,,,0.04,Wunderground v.1.15,2013-01-05 23:29:00,
2013-01-05 18:32:00,72.5,69.1,30.15,ESE,103,0.0,0.0,89,0.00,,,0.04,Wunderground v.1.15,2013-01-05 23:32:00,
2013-01-05 18:33:00,72.4,69.0,30.15,ESE,103,0.0,0.0,89,0.00,,,0.04,Wunderground v.1.15,2013-01-05 23:33:00,
2013-01-05 18:34:00,72.4,69.0,30.15,ESE,103,0.0,0.0,89,0.00,,,0.04,Wunderground v.1.15,2013-01-05 23:34:00,
2013-01-05 18:38:00,72.3,68.9,30.15,ESE,103,0.0,0.0,89,0.00,,,0.04,Wunderground v.1.15,2013-01-05 23:38:00,
2013-01-05 18:39:00,72.2,68.8,30.15,ESE,103,0.0,0.0,89,0.00,,,0.04,Wunderground v.1.15,2013-01-05 23:39:00,
2013-01-05 18:44:00,71.9,68.8,30.15,ESE,103,0.0,0.0,90,0.00,,,0.04,Wunderground v.1.15,2013-01-05 23:44:00,
2013-01-05 18:45:00,71.8,68.7,30.15,ESE,103,0.0,0.0,90,0.00,,,0.04,Wunderground v.1.15,2013-01-05 23:45:00,
2013-01-05 18:49:00,71.5,68.4,30.15,ESE,103,0.0,0.0,90,0.00,,,0.04,Wunderground v.1.15,2013-01-05 23:49:00,
2013-01-05 18:50:00,71.4,68.3,30.15,ESE,103,0.0,0.0,90,0.00,,,0.04,Wunderground v.1.15,2013-01-05 23:50:00,
2013-01-05 18:54:00,71.1,68.3,30.15,ESE,103,0.0,0.0,91,0.00,,,0.04,Wunderground v.1.15,2013-01-05 23:54:00,
2013-01-05 18:55:00,71.1,68.3,30.15,ESE,103,0.0,0.0,91,0.00,,,0.04,Wunderground v.1.15,2013-01-05 23:55:00,
2013-01-05 19:00:00,70.7,67.9,30.15,ESE,103,0.0,0.0,91,0.00,,,0.04,Wunderground v.1.15,2013-01-06 00:00:00,
2013-01-05 19:01:00,70.7,67.9,30.15,ESE,103,0.0,0.0,91,0.00,,,0.04,Wunderground v.1.15,2013-01-06 00:01:00,
2013-01-05 19:03:00,70.6,68.2,30.15,ESE,103,0.0,0.0,92,0.00,,,0.04,Wunderground v.1.15,2013-01-06 00:03:00,
2013-01-05 19:06:00,70.4,68.0,30.16,ESE,103,0.0,0.0,92,0.00,,,0.04,Wunderground v.1.15,2013-01-06 00:06:00,
2013-01-05 19:07:00,70.4,68.0,30.15,ESE,103,0.0,0.0,92,0.00,,,0.04,Wunderground v.1.15,2013-01-06 00:07:00,
2013-01-05 19:08:00,70.4,68.0,30.16,ESE,103,0.0,0.0,92,0.00,,,0.04,Wunderground v.1.15,2013-01-06 00:08:00,
2013-01-05 19:11:00,70.2,67.8,30.16,ESE,103,0.0,0.0,92,0.00,,,0.04,Wunderground v.1.15,2013-01-06 00:11:00,
2013-01-05 19:12:00,70.2,67.8,30.16,ESE,103,0.0,0.0,92,0.00,,,0.04,Wunderground v.1.15,2013-01-06 00:12:00,
2013-01-05 19:13:00,70.1,67.7,30.16,ESE,103,0.0,0.0,92,0.00,,,0.04,Wunderground v.1.15,2013-01-06 00:13:00,
2013-01-05 19:17:00,69.8,67.4,30.15,ESE,103,0.0,0.0,92,0.00,,,0.04,Wunderground v.1.15,2013-01-06 00:17:00,
2013-01-05 19:18:00,69.8,67.4,30.16,ESE,103,0.0,0.0,92,0.00,,,0.04,Wunderground v.1.15,2013-01-06 00:18:00,
2013-01-05 19:19:00,69.7,67.3,30.16,ESE,103,0.0,0.0,92,0.00,,,0.04,Wunderground v.1.15,2013-01-06 00:19:00,
2013-01-05 19:22:00,69.6,67.5,30.16,ESE,103,0.0,0.0,93,0.00,,,0.04,Wunderground v.1.15,2013-01-06 00:22:00,
2013-01-05 19:24:00,69.6,67.5,30.16,ESE,103,0.0,0.0,93,0.00,,,0.04,Wunderground v.1.15,2013-01-06 00:24:00,
2013-01-05 19:27:00,69.7,67.6,30.16,ESE,103,0.0,0.0,93,0.00,,,0.04,Wunderground v.1.15,2013-01-06 00:27:00,
2013-01-05 19:28:00,69.7,67.6,30.16,ESE,103,0.0,0.0,93,0.00,,,0.04,Wunderground v.1.15,2013-01-06 00:28:00,
2013-01-05 19:29:00,69.8,67.7,30.16,ESE,103,0.0,0.0,93,0.00,,,0.04,Wunderground v.1.15,2013-01-06 00:29:00,
2013-01-05 19:30:00,69.8,67.7,30.16,ESE,103,0.0,0.0,93,0.00,,,0.04,Wunderground v.1.15,2013-01-06 00:30:00,
2013-01-05 19:33:00,69.9,68.1,30.16,ESE,103,0.0,0.0,94,0.00,,,0.04,Wunderground v.1.15,2013-01-06 00:33:00,
2013-01-05 19:35:00,69.9,68.1,30.16,ESE,103,0.0,0.0,94,0.00,,,0.04,Wunderground v.1.15,2013-01-06 00:35:00,
2013-01-05 19:38:00,69.7,67.6,30.16,ESE,103,0.0,0.0,93,0.00,,,0.04,Wunderground v.1.15,2013-01-06 00:38:00,
2013-01-05 19:39:00,69.5,67.4,30.16,ESE,103,0.0,0.0,93,0.00,,,0.04,Wunderground v.1.15,2013-01-06 00:39:00,
2013-01-05 19:40:00,69.4,67.3,30.16,ESE,103,0.0,0.0,93,0.00,,,0.04,Wunderground v.1.15,2013-01-06 00:40:00,
2013-01-05 19:43:00,69.0,66.9,30.16,ESE,104,0.0,0.0,93,0.00,,,0.04,Wunderground v.1.15,2013-01-06 00:43:00,
2013-01-05 19:44:00,68.9,66.8,30.16,ESE,103,0.0,0.0,93,0.00,,,0.04,Wunderground v.1.15,2013-01-06 00:44:00,
2013-01-05 19:45:00,68.9,66.8,30.16,ESE,103,0.0,0.0,93,0.00,,,0.04,Wunderground v.1.15,2013-01-06 00:45:00,
2013-01-05 19:49:00,68.6,66.8,30.16,ESE,103,0.0,0.0,94,0.00,,,0.04,Wunderground v.1.15,2013-01-06 00:49:00,
2013-01-05 19:50:00,68.6,66.5,30.16,ESE,103,0.0,0.0,93,0.00,,,0.04,Wunderground v.1.15,2013-01-06 00:50:00,
2013-01-05 19:51:00,68.6,66.8,30.16,ESE,103,0.0,0.0,94,0.00,,,0.04,Wunderground v.1.15,2013-01-06 00:51:00,
2013-01-05 19:54:00,68.3,66.5,30.17,ESE,103,0.0,0.0,94,0.00,,,0.04,Wunderground v.1.15,2013-01-06 00:54:00,
2013-01-05 19:55:00,68.3,66.5,30.16,ESE,103,0.0,0.0,94,0.00,,,0.04,Wunderground v.1.15,2013-01-06 00:55:00,
2013-01-05 19:56:00,68.2,66.4,30.17,ESE,103,0.0,0.0,94,0.00,,,0.04,Wunderground v.1.15,2013-01-06 00:56:00,
2013-01-05 20:00:00,68.1,66.3,30.17,ESE,103,0.0,0.0,94,0.00,,,0.04,Wunderground v.1.15,2013-01-06 01:00:00,
2013-01-05 20:01:00,68.1,66.3,30.17,ESE,103,0.0,0.0,94,0.00,,,0.04,Wunderground v.1.15,2013-01-06 01:01:00,
2013-01-05 20:05:00,68.0,66.2,30.17,ESE,103,0.0,0.0,94,0.00,,,0.04,Wunderground v.1.15,2013-01-06 01:05:00,
2013-01-05 20:06:00,67.9,66.1,30.17,ESE,103,0.0,0.0,94,0.00,,,0.04,Wunderground v.1.15,2013-01-06 01:06:00,
2013-01-05 20:11:00,67.9,66.1,30.17,ESE,103,0.0,0.0,94,0.00,,,0.04,Wunderground v.1.15,2013-01-06 01:11:00,
2013-01-05 20:12:00,67.9,66.1,30.17,ESE,103,0.0,0.0,94,0.00,,,0.04,Wunderground v.1.15,2013-01-06 01:12:00,
2013-01-05 20:16:00,68.0,66.5,30.17,ESE,104,0.0,0.0,95,0.00,,,0.04,Wunderground v.1.15,2013-01-06 01:16:00,
2013-01-05 20:17:00,68.0,66.5,30.17,ESE,103,0.0,0.0,95,0.00,,,0.04,Wunderground v.1.15,2013-01-06 01:17:00,
2013-01-05 20:18:00,68.0,66.5,30.17,ESE,103,0.0,0.0,95,0.00,,,0.04,Wunderground v.1.15,2013-01-06 01:18:00,
2013-01-05 20:21:00,68.0,66.5,30.18,ESE,103,0.0,0.0,95,0.00,,,0.04,Wunderground v.1.15,2013-01-06 01:21:00,
2013-01-05 20:22:00,68.0,66.5,30.17,ESE,103,0.0,0.0,95,0.00,,,0.04,Wunderground v.1.15,2013-01-06 01:22:00,
2013-01-05 20:24:00,67.9,66.4,30.18,ESE,103,0.0,0.0,95,0.00,,,0.04,Wunderground v.1.15,2013-01-06 01:24:00,
2013-01-05 20:26:00,67.8,66.3,30.18,ESE,103,0.0,0.0,95,0.00,,,0.04,Wunderground v.1.15,2013-01-06 01:26:00,
2013-01-05 20:27:00,67.8,66.3,30.18,ESE,103,0.0,0.0,95,0.00,,,0.04,Wunderground v.1.15,2013-01-06 01:27:00,
2013-01-05 20:28:00,67.7,66.2,30.18,ESE,103,0.0,0.0,95,0.00,,,0.04,Wunderground v.1.15,2013-01-06 01:28:00,
2013-01-05 20:29:00,67.7,66.2,30.18,ESE,103,0.0,0.0,95,0.00,,,0.04,Wunderground v.1.15,2013-01-06 01:29:00,
2013-01-05 20:32:00,67.6,66.1,30.18,ESE,103,0.0,0.0,95,0.00,,,0.04,Wunderground v.1.15,2013-01-06 01:32:00,
2013-01-05 20:33:00,67.6,66.1,30.18,ESE,103,0.0,0.0,95,0.00,,,0.04,Wunderground v.1.15,2013-01-06 01:33:00,
2013-01-05 20:35:00,67.6,66.1,30.18,ESE,103,0.0,0.0,95,0.00,,,0.04,Wunderground v.1.15,2013-01-06 01:35:00,
2013-01-05 20:37:00,67.7,66.2,30.18,ESE,103,0.0,0.0,95,0.00,,,0.04,Wunderground v.1.15,2013-01-06 01:37:00,
2013-01-05 20:38:00,67.7,66.2,30.18,ESE,103,0.0,0.0,95,0.00,,,0.04,Wunderground v.1.15,2013-01-06 01:38:00,
2013-01-05 20:39:00,67.7,66.2,30.18,ESE,103,0.0,0.0,95,0.00,,,0.04,Wunderground v.1.15,2013-01-06 01:39:00,
2013-01-05 20:40:00,67.7,66.2,30.18,ESE,103,0.0,0.0,95,0.00,,,0.04,Wunderground v.1.15,2013-01-06 01:40:00,
2013-01-05 20:43:00,67.7,66.2,30.18,ESE,103,0.0,0.0,95,0.00,,,0.04,Wunderground v.1.15,2013-01-06 01:43:00,
2013-01-05 20:44:00,67.8,66.3,30.18,ESE,103,0.0,0.0,95,0.00,,,0.04,Wunderground v.1.15,2013-01-06 01:44:00,
2013-01-05 20:45:00,67.8,66.3,30.18,ESE,103,0.0,0.0,95,0.00,,,0.04,Wunderground v.1.15,2013-01-06 01:45:00,
2013-01-05 20:49:00,67.7,66.2,30.18,ESE,103,0.0,0.0,95,0.00,,,0.04,Wunderground v.1.15,2013-01-06 01:49:00,
2013-01-05 20:50:00,67.7,66.2,30.18,ESE,103,0.0,0.0,95,0.00,,,0.04,Wunderground v.1.15,2013-01-06 01:50:00,
2013-01-05 20:51:00,67.7,66.2,30.18,ESE,103,0.0,0.0,95,0.00,,,0.04,Wunderground v.1.15,2013-01-06 01:51:00,
2013-01-05 20:54:00,67.7,66.2,30.18,ESE,103,0.0,0.0,95,0.00,,,0.04,Wunderground v.1.15,2013-01-06 01:54:00,
2013-01-05 20:55:00,67.7,66.2,30.18,ESE,103,0.0,0.0,95,0.00,,,0.04,Wunderground v.1.15,2013-01-06 01:55:00,
2013-01-05 20:56:00,67.7,66.2,30.18,ESE,103,0.0,0.0,95,0.00,,,0.04,Wunderground v.1.15,2013-01-06 01:56:00,
2013-01-05 20:59:00,67.7,66.2,30.18,ESE,103,0.0,0.0,95,0.00,,,0.04,Wunderground v.1.15,2013-01-06 01:59:00,
2013-01-05 21:00:00,67.7,66.2,30.18,ESE,103,0.0,0.0,95,0.00,,,0.04,Wunderground v.1.15,2013-01-06 02:00:00,
2013-01-05 21:01:00,67.6,66.1,30.18,ESE,103,0.0,0.0,95,0.00,,,0.04,Wunderground v.1.15,2013-01-06 02:01:00,
2013-01-05 21:02:00,67.6,66.1,30.18,ESE,103,0.0,0.0,95,0.00,,,0.04,Wunderground v.1.15,2013-01-06 02:02:00,
2013-01-05 21:04:00,67.6,66.4,30.18,ESE,103,0.0,0.0,96,0.00,,,0.04,Wunderground v.1.15,2013-01-06 02:04:00,
2013-01-05 21:05:00,67.7,66.5,30.18,ESE,103,0.0,0.0,96,0.00,,,0.04,Wunderground v.1.15,2013-01-06 02:05:00,
2013-01-05 21:07:00,67.7,66.5,30.18,ESE,103,0.0,0.0,96,0.00,,,0.04,Wunderground v.1.15,2013-01-06 02:07:00,
2013-01-05 21:08:00,67.6,66.4,30.18,ESE,103,0.0,0.0,96,0.00,,,0.04,Wunderground v.1.15,2013-01-06 02:08:00,
2013-01-05 21:09:00,67.7,66.5,30.18,ESE,103,0.0,0.0,96,0.00,,,0.04,Wunderground v.1.15,2013-01-06 02:09:00,
2013-01-05 21:11:00,67.7,66.5,30.18,ESE,103,0.0,0.0,96,0.00,,,0.04,Wunderground v.1.15,2013-01-06 02:11:00,
2013-01-05 21:12:00,67.6,66.4,30.18,ESE,103,0.0,0.0,96,0.00,,,0.04,Wunderground v.1.15,2013-01-06 02:12:00,
2013-01-05 21:14:00,67.6,66.4,30.18,ESE,103,0.0,0.0,96,0.00,,,0.04,Wunderground v.1.15,2013-01-06 02:14:00,
2013-01-05 21:15:00,67.7,66.5,30.18,ESE,103,0.0,0.0,96,0.00,,,0.04,Wunderground v.1.15,2013-01-06 02:15:00,
2013-01-05 21:16:00,67.6,66.4,30.18,ESE,103,0.0,0.0,96,0.00,,,0.04,Wunderground v.1.15,2013-01-06 02:16:00,
2013-01-05 21:18:00,67.6,66.4,30.18,ESE,103,0.0,0.0,96,0.00,,,0.04,Wunderground v.1.15,2013-01-06 02:18:00,
2013-01-05 21:19:00,67.6,66.4,30.18,ESE,103,0.0,0.0,96,0.00,,,0.04,Wunderground v.1.15,2013-01-06 02:19:00,
2013-01-05 21:20:00,67.6,66.4,30.18,ESE,103,0.0,0.0,96,0.00,,,0.04,Wunderground v.1.15,2013-01-06 02:20:00,
2013-01-05 21:22:00,67.6,66.4,30.18,ESE,103,0.0,0.0,96,0.00,,,0.04,Wunderground v.1.15,2013-01-06 02:22:00,
2013-01-05 21:23:00,67.6,66.4,30.18,ESE,103,0.0,0.0,96,0.00,,,0.04,Wunderground v.1.15,2013-01-06 02:23:00,
2013-01-05 21:25:00,67.5,66.3,30.18,ESE,103,0.0,0.0,96,0.00,,,0.04,Wunderground v.1.15,2013-01-06 02:25:00,
2013-01-05 21:27:00,67.5,66.3,30.18,ESE,103,0.0,0.0,96,0.00,,,0.04,Wunderground v.1.15,2013-01-06 02:27:00,
2013-01-05 21:28:00,67.4,65.9,30.18,ESE,103,0.0,0.0,95,0.00,,,0.04,Wunderground v.1.15,2013-01-06 02:28:00,
2013-01-05 21:30:00,67.4,65.9,30.18,ESE,103,0.0,0.0,95,0.00,,,0.04,Wunderground v.1.15,2013-01-06 02:30:00,
2013-01-05 21:31:00,67.4,65.9,30.18,ESE,103,0.0,0.0,95,0.00,,,0.04,Wunderground v.1.15,2013-01-06 02:31:00,
2013-01-05 21:32:00,67.4,65.9,30.18,ESE,103,0.0,0.0,95,0.00,,,0.04,Wunderground v.1.15,2013-01-06 02:32:00,
2013-01-05 21:35:00,67.3,65.8,30.18,ESE,103,0.0,0.0,95,0.00,,,0.04,Wunderground v.1.15,2013-01-06 02:35:00,
2013-01-05 21:36:00,67.3,65.8,30.18,ESE,103,0.0,0.0,95,0.00,,,0.04,Wunderground v.1.15,2013-01-06 02:36:00,
2013-01-05 21:37:00,67.4,65.9,30.18,ESE,103,0.0,0.0,95,0.00,,,0.04,Wunderground v.1.15,2013-01-06 02:37:00,
2013-01-05 21:40:00,67.4,65.9,30.18,ESE,103,0.0,0.0,95,0.00,,,0.04,Wunderground v.1.15,2013-01-06 02:40:00,
2013-01-05 21:41:00,67.3,65.8,30.18,ESE,103,0.0,0.0,95,0.00,,,0.04,Wunderground v.1.15,2013-01-06 02:41:00,
2013-01-05 21:43:00,67.3,65.8,30.18,ESE,103,0.0,0.0,95,0.00,,,0.04,Wunderground v.1.15,2013-01-06 02:43:00,
2013-01-05 21:45:00,67.2,65.7,30.18,ESE,103,0.0,0.0,95,0.00,,,0.04,Wunderground v.1.15,2013-01-06 02:45:00,
2013-01-05 21:47:00,67.2,65.7,30.18,ESE,103,0.0,0.0,95,0.00,,,0.04,Wunderground v.1.15,2013-01-06 02:47:00,
2013-01-05 21:48:00,67.2,66.0,30.18,ESE,103,0.0,0.0,96,0.00,,,0.04,Wunderground v.1.15,2013-01-06 02:48:00,
2013-01-05 21:50:00,67.2,66.0,30.18,ESE,103,0.0,0.0,96,0.00,,,0.04,Wunderground v.1.15,2013-01-06 02:50:00,
2013-01-05 21:52:00,67.1,65.9,30.18,ESE,103,0.0,0.0,96,0.00,,,0.04,Wunderground v.1.15,2013-01-06 02:52:00,
2013-01-05 21:53:00,67.1,65.9,30.18,ESE,103,0.0,0.0,96,0.00,,,0.04,Wunderground v.1.15,2013-01-06 02:53:00,
2013-01-05 21:54:00,67.1,65.9,30.18,ESE,103,0.0,0.0,96,0.00,,,0.04,Wunderground v.1.15,2013-01-06 02:54:00,
2013-01-05 21:55:00,67.1,65.9,30.18,ESE,103,0.0,0.0,96,0.00,,,0.04,Wunderground v.1.15,2013-01-06 02:55:00,
2013-01-05 21:58:00,67.1,65.9,30.18,ESE,103,0.0,0.0,96,0.00,,,0.04,Wunderground v.1.15,2013-01-06 02:58:00,
2013-01-05 21:59:00,67.1,65.9,30.18,ESE,103,0.0,0.0,96,0.00,,,0.04,Wunderground v.1.15,2013-01-06 02:59:00,
2013-01-05 22:00:00,67.0,65.8,30.18,ESE,103,0.0,0.0,96,0.00,,,0.04,Wunderground v.1.15,2013-01-06 03:00:00,
2013-01-05 22:02:00,67.0,65.8,30.18,ESE,103,0.0,0.0,96,0.00,,,0.04,Wunderground v.1.15,2013-01-06 03:02:00,
2013-01-05 22:03:00,67.0,65.8,30.18,ESE,103,0.0,0.0,96,0.00,,,0.04,Wunderground v.1.15,2013-01-06 03:03:00,
2013-01-05 22:04:00,67.0,65.8,30.18,ESE,103,0.0,0.0,96,0.00,,,0.04,Wunderground v.1.15,2013-01-06 03:04:00,
2013-01-05 22:05:00,67.0,65.8,30.18,ESE,103,0.0,0.0,96,0.00,,,0.04,Wunderground v.1.15,2013-01-06 03:05:00,
2013-01-05 22:07:00,66.9,65.7,30.18,ESE,103,0.0,0.0,96,0.00,,,0.04,Wunderground v.1.15,2013-01-06 03:07:00,
2013-01-05 22:09:00,66.9,65.7,30.18,ESE,103,0.0,0.0,96,0.00,,,0.04,Wunderground v.1.15,2013-01-06 03:09:00,
2013-01-05 22:10:00,66.9,65.7,30.18,ESE,103,0.0,0.0,96,0.00,,,0.04,Wunderground v.1.15,2013-01-06 03:10:00,
2013-01-05 22:13:00,66.9,65.7,30.18,ESE,103,0.0,0.0,96,0.00,,,0.04,Wunderground v.1.15,2013-01-06 03:13:00,
2013-01-05 22:14:00,66.9,65.7,30.18,ESE,103,0.0,0.0,96,0.00,,,0.04,Wunderground v.1.15,2013-01-06 03:14:00,
2013-01-05 22:15:00,66.9,65.7,30.18,ESE,103,0.0,0.0,96,0.00,,,0.04,Wunderground v.1.15,2013-01-06 03:15:00,
2013-01-05 22:16:00,67.0,65.8,30.18,ESE,103,0.0,0.0,96,0.00,,,0.04,Wunderground v.1.15,2013-01-06 03:16:00,
2013-01-05 22:18:00,67.0,65.8,30.18,ESE,103,0.0,0.0,96,0.00,,,0.04,Wunderground v.1.15,2013-01-06 03:18:00,
2013-01-05 22:19:00,66.9,65.7,30.18,ESE,103,0.0,0.0,96,0.00,,,0.04,Wunderground v.1.15,2013-01-06 03:19:00,
2013-01-05 22:20:00,66.9,65.7,30.18,ESE,103,0.0,0.0,96,0.00,,,0.04,Wunderground v.1.15,2013-01-06 03:20:00,
2013-01-05 22:22:00,66.9,65.7,30.18,ESE,103,0.0,0.0,96,0.00,,,0.04,Wunderground v.1.15,2013-01-06 03:22:00,
2013-01-05 22:23:00,66.9,65.7,30.18,ESE,103,0.0,0.0,96,0.00,,,0.04,Wunderground v.1.15,2013-01-06 03:23:00,
2013-01-05 22:24:00,67.0,65.8,30.18,ESE,103,0.0,0.0,96,0.00,,,0.04,Wunderground v.1.15,2013-01-06 03:24:00,
2013-01-05 22:25:00,67.0,65.8,30.18,ESE,103,0.0,0.0,96,0.00,,,0.04,Wunderground v.1.15,2013-01-06 03:25:00,
2013-01-05 22:27:00,66.9,65.7,30.18,ESE,103,0.0,0.0,96,0.00,,,0.04,Wunderground v.1.15,2013-01-06 03:27:00,
2013-01-05 22:29:00,66.9,65.7,30.18,ESE,103,0.0,0.0,96,0.00,,,0.04,Wunderground v.1.15,2013-01-06 03:29:00,
2013-01-05 22:30:00,66.9,65.7,30.18,ESE,103,0.0,0.0,96,0.00,,,0.04,Wunderground v.1.15,2013-01-06 03:30:00,
2013-01-05 22:32:00,66.9,65.7,30.18,ESE,103,0.0,0.0,96,0.00,,,0.04,Wunderground v.1.15,2013-01-06 03:32:00,
2013-01-05 22:34:00,66.9,65.7,30.17,ESE,103,0.0,0.0,96,0.00,,,0.04,Wunderground v.1.15,2013-01-06 03:34:00,
2013-01-05 22:35:00,66.9,65.7,30.17,ESE,103,0.0,0.0,96,0.00,,,0.04,Wunderground v.1.15,2013-01-06 03:35:00,
2013-01-05 22:36:00,67.0,65.8,30.17,ESE,103,0.0,0.0,96,0.00,,,0.04,Wunderground v.1.15,2013-01-06 03:36:00,
2013-01-05 22:37:00,67.0,65.8,30.17,ESE,103,0.0,0.0,96,0.00,,,0.04,Wunderground v.1.15,2013-01-06 03:37:00,
2013-01-05 22:39:00,67.0,65.8,30.17,ESE,103,0.0,0.0,96,0.00,,,0.04,Wunderground v.1.15,2013-01-06 03:39:00,
2013-01-05 22:40:00,67.1,65.9,30.17,ESE,103,0.0,0.0,96,0.00,,,0.04,Wunderground v.1.15,2013-01-06 03:40:00,
2013-01-05 22:41:00,67.1,65.9,30.17,ESE,103,0.0,0.0,96,0.00,,,0.04,Wunderground v.1.15,2013-01-06 03:41:00,
2013-01-05 22:42:00,67.1,65.9,30.17,ESE,103,0.0,0.0,96,0.00,,,0.04,Wunderground v.1.15,2013-01-06 03:42:00,
2013-01-05 22:44:00,67.1,65.9,30.17,ESE,103,0.0,0.0,96,0.00,,,0.04,Wunderground v.1.15,2013-01-06 03:44:00,
2013-01-05 22:45:00,67.1,65.9,30.17,ESE,103,0.0,0.0,96,0.00,,,0.04,Wunderground v.1.15,2013-01-06 03:45:00,
2013-01-05 22:46:00,67.1,65.9,30.17,ESE,103,0.0,0.0,96,0.00,,,0.04,Wunderground v.1.15,2013-01-06 03:46:00,
2013-01-05 22:47:00,67.1,65.9,30.17,ESE,103,0.0,0.0,96,0.00,,,0.04,Wunderground v.1.15,2013-01-06 03:47:00,
2013-01-05 22:51:00,67.1,65.9,30.17,ESE,103,0.0,0.0,96,0.00,,,0.04,Wunderground v.1.15,2013-01-06 03:51:00,
2013-01-05 22:52:00,67.1,65.9,30.17,ESE,103,0.0,0.0,96,0.00,,,0.04,Wunderground v.1.15,2013-01-06 03:52:00,
2013-01-05 22:53:00,67.2,66.0,30.17,ESE,103,0.0,0.0,96,0.00,,,0.04,Wunderground v.1.15,2013-01-06 03:53:00,
2013-01-05 22:56:00,67.1,65.9,30.17,ESE,103,0.0,0.0,96,0.00,,,0.04,Wunderground v.1.15,2013-01-06 03:56:00,
2013-01-05 22:57:00,67.0,65.8,30.17,ESE,103,0.0,0.0,96,0.00,,,0.04,Wunderground v.1.15,2013-01-06 03:57:00,
2013-01-05 22:58:00,67.0,65.8,30.17,ESE,103,0.0,0.0,96,0.00,,,0.04,Wunderground v.1.15,2013-01-06 03:58:00,
2013-01-05 23:01:00,66.8,65.6,30.17,ESE,103,0.0,0.0,96,0.00,,,0.04,Wunderground v.1.15,2013-01-06 04:01:00,
2013-01-05 23:03:00,66.7,65.5,30.17,ESE,103,0.0,0.0,96,0.00,,,0.04,Wunderground v.1.15,2013-01-06 04:03:00,
2013-01-05 23:04:00,66.7,65.5,30.17,ESE,103,0.0,0.0,96,0.00,,,0.04,Wunderground v.1.15,2013-01-06 04:04:00,
2013-01-05 23:07:00,66.5,65.3,30.17,ESE,103,0.0,0.0,96,0.00,,,0.04,Wunderground v.1.15,2013-01-06 04:07:00,
2013-01-05 23:09:00,66.4,65.2,30.17,ESE,103,0.0,0.0,96,0.00,,,0.04,Wunderground v.1.15,2013-01-06 04:09:00,
2013-01-05 23:12:00,66.2,65.0,30.17,ESE,103,0.0,0.0,96,0.00,,,0.04,Wunderground v.1.15,2013-01-06 04:12:00,
2013-01-05 23:14:00,66.2,65.0,30.17,ESE,103,0.0,0.0,96,0.00,,,0.04,Wunderground v.1.15,2013-01-06 04:14:00,
2013-01-05 23:15:00,66.2,65.0,30.17,ESE,103,0.0,0.0,96,0.00,,,0.04,Wunderground v.1.15,2013-01-06 04:15:00,
2013-01-05 23:17:00,66.3,65.1,30.17,ESE,103,0.0,0.0,96,0.00,,,0.04,Wunderground v.1.15,2013-01-06 04:17:00,
2013-01-05 23:18:00,66.3,65.1,30.17,ESE,103,0.0,0.0,96,0.00,,,0.04,Wunderground v.1.15,2013-01-06 04:18:00,
2013-01-05 23:20:00,66.4,65.2,30.17,ESE,103,0.0,0.0,96,0.00,,,0.04,Wunderground v.1.15,2013-01-06 04:20:00,
2013-01-05 23:23:00,66.5,65.3,30.17,ESE,103,0.0,0.0,96,0.00,,,0.04,Wunderground v.1.15,2013-01-06 04:23:00,
2013-01-05 23:25:00,66.5,65.3,30.17,ESE,103,0.0,0.0,96,0.00,,,0.04,Wunderground v.1.15,2013-01-06 04:25:00,
2013-01-05 23:26:00,66.5,65.3,30.17,ESE,103,0.0,0.0,96,0.00,,,0.04,Wunderground v.1.15,2013-01-06 04:26:00,
2013-01-05 23:28:00,66.5,65.3,30.17,ESE,103,0.0,0.0,96,0.00,,,0.04,Wunderground v.1.15,2013-01-06 04:28:00,
2013-01-05 23:30:00,66.5,65.3,30.17,ESE,103,0.0,0.0,96,0.00,,,0.04,Wunderground v.1.15,2013-01-06 04:30:00,
2013-01-05 23:31:00,66.5,65.3,30.17,ESE,103,0.0,0.0,96,0.00,,,0.04,Wunderground v.1.15,2013-01-06 04:31:00,
2013-01-05 23:33:00,66.6,65.4,30.17,ESE,103,0.0,0.0,96,0.00,,,0.04,Wunderground v.1.15,2013-01-06 04:33:00,
2013-01-05 23:34:00,66.6,65.4,30.17,ESE,103,0.0,0.0,96,0.00,,,0.04,Wunderground v.1.15,2013-01-06 04:34:00,
2013-01-05 23:35:00,66.5,65.3,30.17,ESE,103,0.0,0.0,96,0.00,,,0.04,Wunderground v.1.15,2013-01-06 04:35:00,
2013-01-05 23:36:00,66.5,65.3,30.17,ESE,103,0.0,0.0,96,0.00,,,0.04,Wunderground v.1.15,2013-01-06 04:36:00,
2013-01-05 23:39:00,66.6,65.4,30.17,ESE,103,0.0,0.0,96,0.00,,,0.04,Wunderground v.1.15,2013-01-06 04:39:00,
2013-01-05 23:40:00,66.6,65.4,30.16,ESE,103,0.0,0.0,96,0.00,,,0.04,Wunderground v.1.15,2013-01-06 04:40:00,
2013-01-05 23:42:00,66.6,65.7,30.16,ESE,103,0.0,0.0,97,0.00,,,0.04,Wunderground v.1.15,2013-01-06 04:42:00,
2013-01-05 23:44:00,66.8,65.6,30.16,ESE,103,0.0,0.0,96,0.00,,,0.04,Wunderground v.1.15,2013-01-06 04:44:00,
2013-01-05 23:45:00,66.8,65.6,30.16,ESE,103,0.0,0.0,96,0.00,,,0.04,Wunderground v.1.15,2013-01-06 04:45:00,
2013-01-05 23:46:00,66.9,65.7,30.16,ESE,103,0.0,0.0,96,0.00,,,0.04,Wunderground v.1.15,2013-01-06 04:46:00,
2013-01-05 23:47:00,67.0,66.1,30.16,ESE,103,0.0,0.0,97,0.00,,,0.04,Wunderground v.1.15,2013-01-06 04:47:00,
2013-01-05 23:49:00,67.1,66.2,30.16,ESE,103,0.0,0.0,97,0.00,,,0.04,Wunderground v.1.15,2013-01-06 04:49:00,
2013-01-05 23:50:00,67.2,66.3,30.16,ESE,103,0.0,0.0,97,0.00,,,0.04,Wunderground v.1.15,2013-01-06 04:50:00,
2013-01-05 23:51:00,67.2,66.3,30.16,ESE,103,0.0,0.0,97,0.00,,,0.04,Wunderground v.1.15,2013-01-06 04:51:00,
2013-01-05 23:52:00,67.2,66.3,30.16,ESE,103,0.0,0.0,97,0.00,,,0.04,Wunderground v.1.15,2013-01-06 04:52:00,
2013-01-05 23:55:00,67.1,66.2,30.16,ESE,103,0.0,0.0,97,0.00,,,0.04,Wunderground v.1.15,2013-01-06 04:55:00,
2013-01-05 23:56:00,67.1,66.2,30.16,ESE,103,0.0,0.0,97,0.00,,,0.04,Wunderground v.1.15,2013-01-06 04:56:00,
2013-01-05 23:57:00,67.0,66.1,30.16,ESE,103,0.0,0.0,97,0.00,,,0.04,Wunderground v.1.15,2013-01-06 04:57:00,